Time,TemperatureF,DewpointF,PressureIn,WindDirection,WindDirectionDegrees,WindSpeedMPH,WindSpeedGustMPH,Humidity,HourlyPrecipIn,Conditions,Clouds,dailyrainin,SoftwareType,DateUTC
2013-03-11 00:00:00,62.1,42.2,29.92,SSE,149,11.0,11.0,48,0.00,,,0.00,Wunderground v.1.15,2013-03-11 04:00:00,
2013-03-11 00:01:00,62.0,42.1,29.92,ESE,114,11.0,11.0,48,0.00,,,0.00,Wunderground v.1.15,2013-03-11 04:01:00,
2013-03-11 00:02:00,62.1,42.7,29.92,ESE,111,11.0,11.0,49,0.00,,,0.00,Wunderground v.1.15,2013-03-11 04:02:00,
2013-03-11 00:07:00,62.1,42.7,29.92,South,175,6.0,11.0,49,0.00,,,0.00,Wunderground v.1.15,2013-03-11 04:07:00,
2013-03-11 00:09:00,62.1,42.7,29.92,SSE,163,9.0,15.0,49,0.00,,,0.00,Wunderground v.1.15,2013-03-11 04:09:00,
2013-03-11 00:12:00,62.1,42.7,29.92,SE,126,6.0,12.0,49,0.00,,,0.00,Wunderground v.1.15,2013-03-11 04:12:00,
2013-03-11 00:15:00,62.1,43.2,29.92,SSW,195,4.0,12.0,50,0.00,,,0.00,Wunderground v.1.15,2013-03-11 04:15:00,
2013-03-11 00:16:00,62.1,43.2,29.93,South,186,5.0,12.0,50,0.00,,,0.00,Wunderground v.1.15,2013-03-11 04:16:00,
2013-03-11 00:19:00,62.1,43.2,29.92,SSE,161,10.0,12.0,50,0.00,,,0.00,Wunderground v.1.15,2013-03-11 04:19:00,
2013-03-11 00:21:00,62.0,43.1,29.92,SE,138,3.0,9.0,50,0.00,,,0.00,Wunderground v.1.15,2013-03-11 04:21:00,
2013-03-11 00:24:00,62.0,43.1,29.92,SE,146,7.0,9.0,50,0.00,,,0.00,Wunderground v.1.15,2013-03-11 04:24:00,
2013-03-11 00:25:00,62.0,43.1,29.93,South,179,8.0,9.0,50,0.00,,,0.00,Wunderground v.1.15,2013-03-11 04:25:00,
2013-03-11 00:29:00,61.9,43.0,29.93,SSW,204,11.0,13.0,50,0.00,,,0.00,Wunderground v.1.15,2013-03-11 04:29:00,
2013-03-11 00:31:00,61.9,43.0,29.93,SSE,161,14.0,14.0,50,0.00,,,0.00,Wunderground v.1.15,2013-03-11 04:31:00,
2013-03-11 00:32:00,61.9,43.6,29.93,SSE,151,4.0,14.0,51,0.00,,,0.00,Wunderground v.1.15,2013-03-11 04:32:00,
2013-03-11 00:34:00,61.9,43.6,29.93,SSE,152,4.0,14.0,51,0.00,,,0.00,Wunderground v.1.15,2013-03-11 04:34:00,
2013-03-11 00:37:00,62.0,43.7,29.92,SW,233,17.0,17.0,51,0.00,,,0.00,Wunderground v.1.15,2013-03-11 04:37:00,
2013-03-11 00:39:00,62.1,43.7,29.92,SSE,159,5.0,17.0,51,0.00,,,0.00,Wunderground v.1.15,2013-03-11 04:39:00,
2013-03-11 00:40:00,62.1,43.7,29.92,SW,217,6.0,9.0,51,0.00,,,0.00,Wunderground v.1.15,2013-03-11 04:40:00,
2013-03-11 00:42:00,62.0,43.7,29.92,South,173,5.0,9.0,51,0.00,,,0.00,Wunderground v.1.15,2013-03-11 04:42:00,
2013-03-11 00:46:00,62.0,44.2,29.92,SSE,159,7.0,9.0,52,0.00,,,0.00,Wunderground v.1.15,2013-03-11 04:46:00,
2013-03-11 00:47:00,62.0,44.2,29.92,ESE,113,14.0,14.0,52,0.00,,,0.00,Wunderground v.1.15,2013-03-11 04:47:00,
2013-03-11 00:50:00,62.2,44.3,29.92,SSW,212,6.0,9.0,52,0.00,,,0.00,Wunderground v.1.15,2013-03-11 04:50:00,
2013-03-11 00:53:00,62.1,44.3,29.92,SSE,163,7.0,10.0,52,0.00,,,0.00,Wunderground v.1.15,2013-03-11 04:53:00,
2013-03-11 00:54:00,62.1,44.3,29.91,SSW,209,9.0,10.0,52,0.00,,,0.00,Wunderground v.1.15,2013-03-11 04:54:00,
2013-03-11 00:58:00,62.0,44.7,29.90,SE,128,14.0,14.0,53,0.00,,,0.00,Wunderground v.1.15,2013-03-11 04:58:00,
2013-03-11 00:59:00,62.1,44.8,29.90,ESE,121,9.0,9.0,53,0.00,,,0.00,Wunderground v.1.15,2013-03-11 04:59:00,
2013-03-11 01:00:00,62.1,44.8,29.91,South,191,20.0,20.0,53,0.00,,,0.00,Wunderground v.1.15,2013-03-11 05:00:00,
2013-03-11 01:05:00,62.3,44.9,29.90,ESE,105,13.0,20.0,53,0.00,,,0.00,Wunderground v.1.15,2013-03-11 05:05:00,
2013-03-11 01:07:00,62.3,44.9,29.91,South,170,14.0,20.0,53,0.00,,,0.00,Wunderground v.1.15,2013-03-11 05:07:00,
2013-03-11 01:11:00,62.2,44.9,29.90,SSW,195,3.0,11.0,53,0.00,,,0.00,Wunderground v.1.15,2013-03-11 05:11:00,
2013-03-11 01:14:00,62.2,45.3,29.90,SSE,163,9.0,12.0,54,0.00,,,0.00,Wunderground v.1.15,2013-03-11 05:14:00,
2013-03-11 01:17:00,62.3,45.4,29.91,SSE,158,7.0,12.0,54,0.00,,,0.00,Wunderground v.1.15,2013-03-11 05:17:00,
2013-03-11 01:18:00,62.2,45.3,29.91,South,188,15.0,15.0,54,0.00,,,0.00,Wunderground v.1.15,2013-03-11 05:18:00,
2013-03-11 01:20:00,62.3,45.4,29.90,South,169,9.0,9.0,54,0.00,,,0.00,Wunderground v.1.15,2013-03-11 05:20:00,
2013-03-11 01:24:00,62.2,45.3,29.90,SSE,157,16.0,16.0,54,0.00,,,0.00,Wunderground v.1.15,2013-03-11 05:24:00,
2013-03-11 01:27:00,62.2,45.3,29.90,East,92,11.0,16.0,54,0.00,,,0.00,Wunderground v.1.15,2013-03-11 05:27:00,
2013-03-11 01:32:00,62.2,45.8,29.90,SSW,204,5.0,11.0,55,0.00,,,0.00,Wunderground v.1.15,2013-03-11 05:32:00,
2013-03-11 01:33:00,62.1,45.7,29.90,SE,134,6.0,11.0,55,0.00,,,0.00,Wunderground v.1.15,2013-03-11 05:33:00,
2013-03-11 01:36:00,62.1,45.7,29.90,South,179,11.0,11.0,55,0.00,,,0.00,Wunderground v.1.15,2013-03-11 05:36:00,
2013-03-11 01:38:00,62.1,45.7,29.90,ESE,119,17.0,17.0,55,0.00,,,0.00,Wunderground v.1.15,2013-03-11 05:38:00,
2013-03-11 01:39:00,62.1,45.7,29.90,SSE,148,24.0,24.0,55,0.00,,,0.00,Wunderground v.1.15,2013-03-11 05:39:00,
2013-03-11 01:41:00,62.2,45.8,29.90,ESE,121,4.0,10.0,55,0.00,,,0.00,Wunderground v.1.15,2013-03-11 05:41:00,
2013-03-11 01:44:00,62.1,45.7,29.90,SSW,192,4.0,12.0,55,0.00,,,0.00,Wunderground v.1.15,2013-03-11 05:44:00,
2013-03-11 01:45:00,62.1,45.7,29.90,SSW,202,15.0,15.0,55,0.00,,,0.00,Wunderground v.1.15,2013-03-11 05:45:00,
2013-03-11 01:50:00,62.1,45.7,29.91,South,189,13.0,13.0,55,0.00,,,0.00,Wunderground v.1.15,2013-03-11 05:50:00,
2013-03-11 01:51:00,62.1,45.7,29.91,ESE,108,7.0,13.0,55,0.00,,,0.00,Wunderground v.1.15,2013-03-11 05:51:00,
2013-03-11 01:56:00,62.1,45.7,29.90,South,171,4.0,13.0,55,0.00,,,0.00,Wunderground v.1.15,2013-03-11 05:56:00,
2013-03-11 01:57:00,62.0,45.6,29.90,SSW,205,11.0,13.0,55,0.00,,,0.00,Wunderground v.1.15,2013-03-11 05:57:00,
2013-03-11 01:58:00,62.0,45.6,29.90,SSE,153,5.0,13.0,55,0.00,,,0.00,Wunderground v.1.15,2013-03-11 05:58:00,
2013-03-11 02:01:00,61.9,46.0,29.91,SW,215,15.0,15.0,56,0.00,,,0.00,Wunderground v.1.15,2013-03-11 06:01:00,
2013-03-11 02:02:00,61.8,45.9,29.90,NE,48,3.0,15.0,56,0.00,,,0.00,Wunderground v.1.15,2013-03-11 06:02:00,
2013-03-11 02:04:00,61.8,45.9,29.90,ESE,123,10.0,15.0,56,0.00,,,0.00,Wunderground v.1.15,2013-03-11 06:04:00,
2013-03-11 02:06:00,61.7,45.8,29.90,ESE,115,9.0,15.0,56,0.00,,,0.00,Wunderground v.1.15,2013-03-11 06:06:00,
2013-03-11 02:07:00,61.7,45.8,29.89,SSW,199,9.0,15.0,56,0.00,,,0.00,Wunderground v.1.15,2013-03-11 06:07:00,
2013-03-11 02:09:00,61.6,45.7,29.90,SSE,159,4.0,15.0,56,0.00,,,0.00,Wunderground v.1.15,2013-03-11 06:09:00,
2013-03-11 02:11:00,61.6,46.2,29.90,ESE,121,3.0,11.0,57,0.00,,,0.00,Wunderground v.1.15,2013-03-11 06:11:00,
2013-03-11 02:12:00,61.6,45.7,29.90,SSE,150,3.0,11.0,56,0.00,,,0.00,Wunderground v.1.15,2013-03-11 06:12:00,
2013-03-11 02:15:00,61.6,46.2,29.89,SSW,207,12.0,20.0,57,0.00,,,0.00,Wunderground v.1.15,2013-03-11 06:15:00,
2013-03-11 02:16:00,61.6,46.2,29.89,SW,216,14.0,20.0,57,0.00,,,0.00,Wunderground v.1.15,2013-03-11 06:16:00,
2013-03-11 02:17:00,61.6,46.2,29.89,South,175,22.0,22.0,57,0.00,,,0.00,Wunderground v.1.15,2013-03-11 06:17:00,
2013-03-11 02:18:00,61.6,46.2,29.89,SE,124,9.0,22.0,57,0.00,,,0.00,Wunderground v.1.15,2013-03-11 06:18:00,
2013-03-11 02:20:00,61.6,46.2,29.89,SSW,206,9.0,13.0,57,0.00,,,0.00,Wunderground v.1.15,2013-03-11 06:20:00,
2013-03-11 02:21:00,61.6,46.2,29.89,SSE,161,8.0,13.0,57,0.00,,,0.00,Wunderground v.1.15,2013-03-11 06:21:00,
2013-03-11 02:22:00,61.6,46.2,29.90,South,173,2.0,13.0,57,0.00,,,0.00,Wunderground v.1.15,2013-03-11 06:22:00,
2013-03-11 02:23:00,61.6,46.2,29.89,SSE,159,6.0,13.0,57,0.00,,,0.00,Wunderground v.1.15,2013-03-11 06:23:00,
2013-03-11 02:25:00,61.6,46.2,29.90,ESE,106,11.0,17.0,57,0.00,,,0.00,Wunderground v.1.15,2013-03-11 06:25:00,
2013-03-11 02:27:00,61.5,46.1,29.90,SSE,160,7.0,17.0,57,0.00,,,0.00,Wunderground v.1.15,2013-03-11 06:27:00,
2013-03-11 02:28:00,61.4,46.0,29.89,South,169,4.0,17.0,57,0.00,,,0.00,Wunderground v.1.15,2013-03-11 06:28:00,
2013-03-11 02:30:00,61.4,46.5,29.90,SW,218,8.0,15.0,58,0.00,,,0.00,Wunderground v.1.15,2013-03-11 06:30:00,
2013-03-11 02:32:00,61.4,46.5,29.89,SW,216,9.0,18.0,58,0.00,,,0.00,Wunderground v.1.15,2013-03-11 06:32:00,
2013-03-11 02:33:00,61.5,46.6,29.89,SSE,147,7.0,18.0,58,0.00,,,0.00,Wunderground v.1.15,2013-03-11 06:33:00,
2013-03-11 02:35:00,61.4,46.5,29.90,SSE,159,10.0,31.0,58,0.00,,,0.00,Wunderground v.1.15,2013-03-11 06:35:00,
2013-03-11 02:37:00,61.4,46.9,29.90,SE,125,1.0,31.0,59,0.00,,,0.00,Wunderground v.1.15,2013-03-11 06:37:00,
2013-03-11 02:38:00,61.4,46.9,29.90,SSE,167,2.0,31.0,59,0.00,,,0.00,Wunderground v.1.15,2013-03-11 06:38:00,
2013-03-11 02:39:00,61.4,46.9,29.90,SSW,195,6.0,31.0,59,0.00,,,0.00,Wunderground v.1.15,2013-03-11 06:39:00,
2013-03-11 02:40:00,61.3,46.8,29.91,WSW,242,5.0,9.0,59,0.00,,,0.00,Wunderground v.1.15,2013-03-11 06:40:00,
2013-03-11 02:43:00,61.2,46.8,29.91,East,98,3.0,19.0,59,0.00,,,0.00,Wunderground v.1.15,2013-03-11 06:43:00,
2013-03-11 02:44:00,61.2,46.8,29.90,SW,216,3.0,19.0,59,0.00,,,0.00,Wunderground v.1.15,2013-03-11 06:44:00,
2013-03-11 02:45:00,61.2,46.8,29.91,SSW,194,19.0,19.0,59,0.00,,,0.00,Wunderground v.1.15,2013-03-11 06:45:00,
2013-03-11 02:48:00,61.3,47.3,29.91,SSW,211,4.0,19.0,60,0.00,,,0.00,Wunderground v.1.15,2013-03-11 06:48:00,
2013-03-11 02:49:00,61.3,47.3,29.91,SSW,198,5.0,7.0,60,0.00,,,0.00,Wunderground v.1.15,2013-03-11 06:49:00,
2013-03-11 02:50:00,61.2,47.2,29.91,South,180,4.0,12.0,60,0.00,,,0.00,Wunderground v.1.15,2013-03-11 06:50:00,
2013-03-11 02:53:00,61.1,47.1,29.91,WNW,298,5.0,12.0,60,0.00,,,0.00,Wunderground v.1.15,2013-03-11 06:53:00,
2013-03-11 02:55:00,61.1,47.5,29.90,SSW,201,4.0,12.0,61,0.00,,,0.00,Wunderground v.1.15,2013-03-11 06:55:00,
2013-03-11 02:56:00,61.1,47.5,29.90,SSE,159,3.0,13.0,61,0.00,,,0.00,Wunderground v.1.15,2013-03-11 06:56:00,
2013-03-11 02:58:00,61.1,47.5,29.90,SW,221,3.0,15.0,61,0.00,,,0.00,Wunderground v.1.15,2013-03-11 06:58:00,
2013-03-11 02:59:00,61.1,47.5,29.90,SW,221,3.0,15.0,61,0.00,,,0.00,Wunderground v.1.15,2013-03-11 06:59:00,
2013-03-11 03:00:00,61.1,47.5,29.90,SSE,160,6.0,7.0,61,0.00,,,0.00,Wunderground v.1.15,2013-03-11 07:00:00,
2013-03-11 03:02:00,61.0,47.9,29.90,SE,142,2.0,9.0,62,0.00,,,0.00,Wunderground v.1.15,2013-03-11 07:02:00,
2013-03-11 03:03:00,61.0,47.9,29.90,SSE,162,3.0,9.0,62,0.00,,,0.00,Wunderground v.1.15,2013-03-11 07:03:00,
2013-03-11 03:04:00,61.0,47.9,29.90,SSE,162,4.0,9.0,62,0.00,,,0.00,Wunderground v.1.15,2013-03-11 07:04:00,
2013-03-11 03:05:00,60.9,47.8,29.90,West,269,2.0,9.0,62,0.00,,,0.00,Wunderground v.1.15,2013-03-11 07:05:00,
2013-03-11 03:07:00,60.9,47.8,29.89,SW,224,4.0,9.0,62,0.00,,,0.00,Wunderground v.1.15,2013-03-11 07:07:00,
2013-03-11 03:09:00,60.8,48.1,29.89,South,171,8.0,10.0,63,0.00,,,0.00,Wunderground v.1.15,2013-03-11 07:09:00,
2013-03-11 03:11:00,60.9,48.2,29.89,SW,222,4.0,10.0,63,0.00,,,0.00,Wunderground v.1.15,2013-03-11 07:11:00,
2013-03-11 03:12:00,60.9,48.2,29.88,SSE,150,0.0,10.0,63,0.00,,,0.00,Wunderground v.1.15,2013-03-11 07:12:00,
2013-03-11 03:14:00,60.8,48.1,29.88,SSW,205,6.0,10.0,63,0.00,,,0.00,Wunderground v.1.15,2013-03-11 07:14:00,
2013-03-11 03:17:00,60.9,48.2,29.88,East,82,2.0,14.0,63,0.00,,,0.00,Wunderground v.1.15,2013-03-11 07:17:00,
2013-03-11 03:19:00,60.8,48.5,29.88,SSE,150,4.0,14.0,64,0.00,,,0.00,Wunderground v.1.15,2013-03-11 07:19:00,
2013-03-11 03:20:00,60.8,48.5,29.88,SW,222,5.0,7.0,64,0.00,,,0.00,Wunderground v.1.15,2013-03-11 07:20:00,
2013-03-11 03:22:00,60.8,48.5,29.88,WSW,247,5.0,13.0,64,0.00,,,0.00,Wunderground v.1.15,2013-03-11 07:22:00,
2013-03-11 03:24:00,60.9,48.6,29.88,SE,134,8.0,13.0,64,0.00,,,0.00,Wunderground v.1.15,2013-03-11 07:24:00,
2013-03-11 03:25:00,60.9,48.6,29.88,SE,128,4.0,13.0,64,0.00,,,0.00,Wunderground v.1.15,2013-03-11 07:25:00,
2013-03-11 03:27:00,60.9,48.6,29.88,SW,222,1.0,13.0,64,0.00,,,0.00,Wunderground v.1.15,2013-03-11 07:27:00,
2013-03-11 03:28:00,61.0,48.7,29.88,SW,226,5.0,13.0,64,0.00,,,0.00,Wunderground v.1.15,2013-03-11 07:28:00,
2013-03-11 03:29:00,61.0,48.7,29.88,SW,218,3.0,14.0,64,0.00,,,0.00,Wunderground v.1.15,2013-03-11 07:29:00,
2013-03-11 03:30:00,61.0,48.7,29.88,ENE,71,14.0,14.0,64,0.00,,,0.00,Wunderground v.1.15,2013-03-11 07:30:00,
2013-03-11 03:33:00,61.0,49.1,29.88,SSE,153,5.0,15.0,65,0.00,,,0.00,Wunderground v.1.15,2013-03-11 07:33:00,
2013-03-11 03:34:00,61.0,49.1,29.88,South,190,4.0,15.0,65,0.00,,,0.00,Wunderground v.1.15,2013-03-11 07:34:00,
2013-03-11 03:35:00,61.0,49.1,29.88,West,259,4.0,15.0,65,0.00,,,0.00,Wunderground v.1.15,2013-03-11 07:35:00,
2013-03-11 03:38:00,60.9,49.1,29.88,South,187,2.0,15.0,65,0.00,,,0.00,Wunderground v.1.15,2013-03-11 07:38:00,
2013-03-11 03:40:00,60.9,49.5,29.88,South,185,15.0,19.0,66,0.00,,,0.00,Wunderground v.1.15,2013-03-11 07:40:00,
2013-03-11 03:43:00,60.9,49.5,29.88,SSW,212,6.0,20.0,66,0.00,,,0.00,Wunderground v.1.15,2013-03-11 07:43:00,
2013-03-11 03:45:00,60.9,49.5,29.88,SSE,162,3.0,20.0,66,0.00,,,0.00,Wunderground v.1.15,2013-03-11 07:45:00,
2013-03-11 03:48:00,60.9,49.5,29.88,SW,218,4.0,20.0,66,0.00,,,0.00,Wunderground v.1.15,2013-03-11 07:48:00,
2013-03-11 03:49:00,60.9,49.5,29.88,South,169,4.0,20.0,66,0.00,,,0.00,Wunderground v.1.15,2013-03-11 07:49:00,
2013-03-11 03:50:00,60.9,49.5,29.88,South,182,12.0,13.0,66,0.00,,,0.00,Wunderground v.1.15,2013-03-11 07:50:00,
2013-03-11 03:53:00,60.9,49.5,29.88,SSE,152,8.0,15.0,66,0.00,,,0.00,Wunderground v.1.15,2013-03-11 07:53:00,
2013-03-11 03:54:00,61.0,50.0,29.87,East,82,5.0,15.0,67,0.00,,,0.00,Wunderground v.1.15,2013-03-11 07:54:00,
2013-03-11 03:55:00,61.0,50.0,29.87,South,173,6.0,20.0,67,0.00,,,0.00,Wunderground v.1.15,2013-03-11 07:55:00,
2013-03-11 03:56:00,60.9,49.9,29.87,South,173,5.0,20.0,67,0.00,,,0.00,Wunderground v.1.15,2013-03-11 07:56:00,
2013-03-11 03:58:00,60.9,49.9,29.87,SSW,194,12.0,21.0,67,0.00,,,0.00,Wunderground v.1.15,2013-03-11 07:58:00,
2013-03-11 04:00:00,60.9,49.9,29.87,South,186,6.0,11.0,67,0.00,,,0.00,Wunderground v.1.15,2013-03-11 08:00:00,
2013-03-11 04:01:00,60.9,49.9,29.87,SE,134,13.0,13.0,67,0.00,,,0.00,Wunderground v.1.15,2013-03-11 08:01:00,
2013-03-11 04:03:00,60.8,49.8,29.86,SSE,164,3.0,17.0,67,0.00,,,0.00,Wunderground v.1.15,2013-03-11 08:03:00,
2013-03-11 04:06:00,60.8,49.8,29.86,SSW,194,9.0,17.0,67,0.00,,,0.00,Wunderground v.1.15,2013-03-11 08:06:00,
2013-03-11 04:09:00,60.8,49.8,29.86,SSW,194,13.0,27.0,67,0.00,,,0.00,Wunderground v.1.15,2013-03-11 08:09:00,
2013-03-11 04:11:00,60.9,49.9,29.86,SSW,202,5.0,22.0,67,0.00,,,0.00,Wunderground v.1.15,2013-03-11 08:11:00,
2013-03-11 04:12:00,60.9,49.9,29.86,SW,220,7.0,22.0,67,0.00,,,0.00,Wunderground v.1.15,2013-03-11 08:12:00,
2013-03-11 04:13:00,60.9,49.9,29.86,SE,136,10.0,22.0,67,0.00,,,0.00,Wunderground v.1.15,2013-03-11 08:13:00,
2013-03-11 04:14:00,60.9,49.9,29.86,SSE,157,6.0,22.0,67,0.00,,,0.00,Wunderground v.1.15,2013-03-11 08:14:00,
2013-03-11 04:16:00,60.9,49.9,29.87,SSW,194,8.0,22.0,67,0.00,,,0.00,Wunderground v.1.15,2013-03-11 08:16:00,
2013-03-11 04:18:00,60.9,50.3,29.86,SSE,160,5.0,22.0,68,0.00,,,0.00,Wunderground v.1.15,2013-03-11 08:18:00,
2013-03-11 04:19:00,60.9,49.9,29.86,South,169,7.0,22.0,67,0.00,,,0.00,Wunderground v.1.15,2013-03-11 08:19:00,
2013-03-11 04:22:00,60.9,50.3,29.86,SW,222,12.0,22.0,68,0.00,,,0.00,Wunderground v.1.15,2013-03-11 08:22:00,
2013-03-11 04:23:00,60.8,50.2,29.86,SSE,148,11.0,22.0,68,0.00,,,0.00,Wunderground v.1.15,2013-03-11 08:23:00,
2013-03-11 04:24:00,60.8,50.2,29.85,SSE,147,3.0,22.0,68,0.00,,,0.00,Wunderground v.1.15,2013-03-11 08:24:00,
2013-03-11 04:27:00,60.7,50.1,29.87,WSW,240,17.0,22.0,68,0.00,,,0.00,Wunderground v.1.15,2013-03-11 08:27:00,
2013-03-11 04:28:00,60.7,50.1,29.87,South,177,8.0,22.0,68,0.00,,,0.00,Wunderground v.1.15,2013-03-11 08:28:00,
2013-03-11 04:29:00,60.7,50.1,29.87,SSW,212,13.0,22.0,68,0.00,,,0.00,Wunderground v.1.15,2013-03-11 08:29:00,
2013-03-11 04:33:00,60.6,50.0,29.87,SSE,148,7.0,19.0,68,0.00,,,0.00,Wunderground v.1.15,2013-03-11 08:33:00,
2013-03-11 04:34:00,60.6,50.0,29.86,SW,217,13.0,19.0,68,0.00,,,0.00,Wunderground v.1.15,2013-03-11 08:34:00,
2013-03-11 04:38:00,60.4,50.2,29.87,SSW,209,9.0,19.0,69,0.00,,,0.00,Wunderground v.1.15,2013-03-11 08:38:00,
2013-03-11 04:39:00,60.4,50.2,29.86,SW,229,14.0,19.0,69,0.00,,,0.00,Wunderground v.1.15,2013-03-11 08:39:00,
2013-03-11 04:40:00,60.4,50.2,29.86,SE,137,15.0,15.0,69,0.00,,,0.00,Wunderground v.1.15,2013-03-11 08:40:00,
2013-03-11 04:43:00,60.4,50.2,29.86,SSE,159,5.0,19.0,69,0.00,,,0.00,Wunderground v.1.15,2013-03-11 08:43:00,
2013-03-11 04:44:00,60.4,50.2,29.86,South,175,5.0,19.0,69,0.00,,,0.00,Wunderground v.1.15,2013-03-11 08:44:00,
2013-03-11 04:45:00,60.4,50.2,29.86,South,170,11.0,19.0,69,0.00,,,0.00,Wunderground v.1.15,2013-03-11 08:45:00,
2013-03-11 04:48:00,60.3,50.1,29.86,SSW,196,5.0,19.0,69,0.00,,,0.00,Wunderground v.1.15,2013-03-11 08:48:00,
2013-03-11 04:49:00,60.3,50.1,29.86,SW,229,20.0,22.0,69,0.00,,,0.00,Wunderground v.1.15,2013-03-11 08:49:00,
2013-03-11 04:50:00,60.2,50.0,29.85,SSE,168,3.0,11.0,69,0.00,,,0.00,Wunderground v.1.15,2013-03-11 08:50:00,
2013-03-11 04:53:00,60.1,49.9,29.86,South,173,16.0,16.0,69,0.00,,,0.00,Wunderground v.1.15,2013-03-11 08:53:00,
2013-03-11 04:54:00,60.2,50.0,29.86,SSW,198,8.0,16.0,69,0.00,,,0.00,Wunderground v.1.15,2013-03-11 08:54:00,
2013-03-11 04:55:00,60.2,50.0,29.86,South,180,9.0,16.0,69,0.00,,,0.00,Wunderground v.1.15,2013-03-11 08:55:00,
2013-03-11 04:59:00,60.1,49.9,29.87,SSW,194,5.0,16.0,69,0.00,,,0.00,Wunderground v.1.15,2013-03-11 08:59:00,
2013-03-11 05:00:00,60.1,49.9,29.87,SW,230,12.0,12.0,69,0.00,,,0.00,Wunderground v.1.15,2013-03-11 09:00:00,
2013-03-11 05:04:00,60.0,50.2,29.86,SW,214,12.0,19.0,70,0.00,,,0.00,Wunderground v.1.15,2013-03-11 09:04:00,
2013-03-11 05:05:00,60.1,50.3,29.86,SE,144,9.0,19.0,70,0.00,,,0.00,Wunderground v.1.15,2013-03-11 09:05:00,
2013-03-11 05:09:00,60.1,50.3,29.86,South,180,5.0,20.0,70,0.00,,,0.00,Wunderground v.1.15,2013-03-11 09:09:00,
2013-03-11 05:10:00,60.1,50.3,29.86,SW,221,4.0,12.0,70,0.00,,,0.00,Wunderground v.1.15,2013-03-11 09:10:00,
2013-03-11 05:11:00,60.0,50.2,29.87,ESE,119,3.0,14.0,70,0.00,,,0.00,Wunderground v.1.15,2013-03-11 09:11:00,
2013-03-11 05:14:00,60.0,50.2,29.86,SSW,194,6.0,15.0,70,0.00,,,0.00,Wunderground v.1.15,2013-03-11 09:14:00,
2013-03-11 05:15:00,59.9,50.1,29.86,SE,145,6.0,15.0,70,0.00,,,0.00,Wunderground v.1.15,2013-03-11 09:15:00,
2013-03-11 05:18:00,59.8,50.0,29.86,South,187,16.0,16.0,70,0.00,,,0.00,Wunderground v.1.15,2013-03-11 09:18:00,
2013-03-11 05:19:00,59.8,50.0,29.86,SE,138,17.0,17.0,70,0.00,,,0.00,Wunderground v.1.15,2013-03-11 09:19:00,
2013-03-11 05:20:00,59.8,50.0,29.86,SSW,194,7.0,15.0,70,0.00,,,0.00,Wunderground v.1.15,2013-03-11 09:20:00,
2013-03-11 05:22:00,59.9,50.1,29.86,South,183,13.0,15.0,70,0.00,,,0.00,Wunderground v.1.15,2013-03-11 09:22:00,
2013-03-11 05:24:00,59.9,50.1,29.86,South,179,13.0,15.0,70,0.00,,,0.00,Wunderground v.1.15,2013-03-11 09:24:00,
2013-03-11 05:26:00,59.9,50.1,29.87,SE,139,6.0,20.0,70,0.00,,,0.00,Wunderground v.1.15,2013-03-11 09:26:00,
2013-03-11 05:27:00,59.9,50.1,29.86,SW,219,6.0,20.0,70,0.00,,,0.00,Wunderground v.1.15,2013-03-11 09:27:00,
2013-03-11 05:29:00,59.9,50.1,29.87,South,171,5.0,20.0,70,0.00,,,0.00,Wunderground v.1.15,2013-03-11 09:29:00,
2013-03-11 05:31:00,59.9,50.1,29.86,WSW,240,16.0,16.0,70,0.00,,,0.00,Wunderground v.1.15,2013-03-11 09:31:00,
2013-03-11 05:32:00,59.9,50.1,29.86,South,182,8.0,16.0,70,0.00,,,0.00,Wunderground v.1.15,2013-03-11 09:32:00,
2013-03-11 05:34:00,59.8,50.4,29.86,SE,133,4.0,19.0,71,0.00,,,0.00,Wunderground v.1.15,2013-03-11 09:34:00,
2013-03-11 05:37:00,59.8,50.0,29.85,SSE,150,9.0,19.0,70,0.00,,,0.00,Wunderground v.1.15,2013-03-11 09:37:00,
2013-03-11 05:40:00,59.7,49.9,29.85,SSW,192,9.0,9.0,70,0.00,,,0.00,Wunderground v.1.15,2013-03-11 09:40:00,
2013-03-11 05:42:00,59.7,50.3,29.86,WSW,237,5.0,17.0,71,0.00,,,0.00,Wunderground v.1.15,2013-03-11 09:42:00,
2013-03-11 05:43:00,59.7,50.3,29.86,SSW,207,18.0,18.0,71,0.00,,,0.00,Wunderground v.1.15,2013-03-11 09:43:00,
2013-03-11 05:45:00,59.7,50.3,29.86,SSE,153,2.0,18.0,71,0.00,,,0.00,Wunderground v.1.15,2013-03-11 09:45:00,
2013-03-11 05:47:00,59.6,50.2,29.86,SSE,157,15.0,18.0,71,0.00,,,0.00,Wunderground v.1.15,2013-03-11 09:47:00,
2013-03-11 05:48:00,59.6,50.2,29.86,South,178,5.0,20.0,71,0.00,,,0.00,Wunderground v.1.15,2013-03-11 09:48:00,
2013-03-11 05:50:00,59.6,50.2,29.86,SSE,155,14.0,17.0,71,0.00,,,0.00,Wunderground v.1.15,2013-03-11 09:50:00,
2013-03-11 05:52:00,59.6,50.2,29.86,SSW,206,7.0,17.0,71,0.00,,,0.00,Wunderground v.1.15,2013-03-11 09:52:00,
2013-03-11 05:53:00,59.6,50.2,29.86,SSW,209,13.0,17.0,71,0.00,,,0.00,Wunderground v.1.15,2013-03-11 09:53:00,
2013-03-11 05:55:00,59.5,50.1,29.86,South,179,7.0,17.0,71,0.00,,,0.00,Wunderground v.1.15,2013-03-11 09:55:00,
2013-03-11 05:57:00,59.5,50.1,29.87,SSW,196,16.0,17.0,71,0.00,,,0.00,Wunderground v.1.15,2013-03-11 09:57:00,
2013-03-11 05:58:00,59.6,50.2,29.86,SW,234,9.0,17.0,71,0.00,,,0.00,Wunderground v.1.15,2013-03-11 09:58:00,
2013-03-11 06:00:00,59.5,50.1,29.86,SSE,168,9.0,15.0,71,0.00,,,0.00,Wunderground v.1.15,2013-03-11 10:00:00,
2013-03-11 06:01:00,59.6,50.2,29.86,SSW,196,11.0,20.0,71,0.00,,,0.00,Wunderground v.1.15,2013-03-11 10:01:00,
2013-03-11 06:03:00,59.5,50.1,29.86,SSW,192,13.0,20.0,71,0.00,,,0.00,Wunderground v.1.15,2013-03-11 10:03:00,
2013-03-11 06:04:00,59.5,50.1,29.86,SSE,147,10.0,20.0,71,0.00,,,0.00,Wunderground v.1.15,2013-03-11 10:04:00,
2013-03-11 06:06:00,59.5,50.1,29.86,SSW,207,5.0,20.0,71,0.00,,,0.00,Wunderground v.1.15,2013-03-11 10:06:00,
2013-03-11 06:07:00,59.5,50.1,29.87,SE,146,11.0,20.0,71,0.00,,,0.00,Wunderground v.1.15,2013-03-11 10:07:00,
2013-03-11 06:08:00,59.6,50.2,29.86,South,190,5.0,21.0,71,0.00,,,0.00,Wunderground v.1.15,2013-03-11 10:08:00,
2013-03-11 06:09:00,59.6,50.2,29.87,SW,234,9.0,21.0,71,0.00,,,0.00,Wunderground v.1.15,2013-03-11 10:09:00,
2013-03-11 06:12:00,59.6,50.2,29.87,SW,230,18.0,20.0,71,0.00,,,0.00,Wunderground v.1.15,2013-03-11 10:12:00,
2013-03-11 06:13:00,59.6,50.2,29.88,SSW,205,4.0,20.0,71,0.00,,,0.00,Wunderground v.1.15,2013-03-11 10:13:00,
2013-03-11 06:14:00,59.6,50.2,29.88,SE,143,5.0,20.0,71,0.00,,,0.00,Wunderground v.1.15,2013-03-11 10:14:00,
2013-03-11 06:17:00,59.6,50.2,29.86,SE,141,22.0,22.0,71,0.00,,,0.00,Wunderground v.1.15,2013-03-11 10:17:00,
2013-03-11 06:18:00,59.5,50.1,29.87,SSE,148,6.0,22.0,71,0.00,,,0.00,Wunderground v.1.15,2013-03-11 10:18:00,
2013-03-11 06:19:00,59.6,50.2,29.87,South,169,5.0,22.0,71,0.00,,,0.00,Wunderground v.1.15,2013-03-11 10:19:00,
2013-03-11 06:20:00,59.6,50.2,29.88,ESE,102,19.0,19.0,71,0.00,,,0.00,Wunderground v.1.15,2013-03-11 10:20:00,
2013-03-11 06:22:00,59.5,50.1,29.87,SW,221,9.0,19.0,71,0.00,,,0.00,Wunderground v.1.15,2013-03-11 10:22:00,
2013-03-11 06:23:00,59.5,50.1,29.87,SSE,155,10.0,19.0,71,0.00,,,0.00,Wunderground v.1.15,2013-03-11 10:23:00,
2013-03-11 06:24:00,59.5,50.1,29.86,SE,138,7.0,19.0,71,0.00,,,0.00,Wunderground v.1.15,2013-03-11 10:24:00,
2013-03-11 06:25:00,59.5,50.1,29.86,ESE,119,4.0,19.0,71,0.00,,,0.00,Wunderground v.1.15,2013-03-11 10:25:00,
2013-03-11 06:27:00,59.5,50.1,29.85,ESE,122,14.0,19.0,71,0.00,,,0.00,Wunderground v.1.15,2013-03-11 10:27:00,
2013-03-11 06:28:00,59.5,50.1,29.85,SSW,207,11.0,19.0,71,0.00,,,0.00,Wunderground v.1.15,2013-03-11 10:28:00,
2013-03-11 06:29:00,59.6,50.2,29.85,SSW,206,11.0,12.0,71,0.00,,,0.00,Wunderground v.1.15,2013-03-11 10:29:00,
2013-03-11 06:30:00,59.6,50.2,29.85,SW,221,14.0,22.0,71,0.00,,,0.00,Wunderground v.1.15,2013-03-11 10:30:00,
2013-03-11 06:33:00,59.6,50.2,29.85,SSW,196,4.0,22.0,71,0.00,,,0.00,Wunderground v.1.15,2013-03-11 10:33:00,
2013-03-11 06:34:00,59.6,50.2,29.85,South,175,11.0,22.0,71,0.00,,,0.00,Wunderground v.1.15,2013-03-11 10:34:00,
2013-03-11 06:35:00,59.6,50.2,29.85,SE,127,9.0,22.0,71,0.00,,,0.00,Wunderground v.1.15,2013-03-11 10:35:00,
2013-03-11 06:38:00,59.6,50.6,29.85,ESE,110,9.0,22.0,72,0.00,,,0.00,Wunderground v.1.15,2013-03-11 10:38:00,
2013-03-11 06:40:00,59.5,50.5,29.84,South,190,18.0,18.0,72,0.00,,,0.00,Wunderground v.1.15,2013-03-11 10:40:00,
2013-03-11 06:41:00,59.6,50.6,29.84,SSW,192,19.0,23.0,72,0.00,,,0.00,Wunderground v.1.15,2013-03-11 10:41:00,
2013-03-11 06:43:00,59.5,50.5,29.85,South,171,13.0,23.0,72,0.00,,,0.00,Wunderground v.1.15,2013-03-11 10:43:00,
2013-03-11 06:45:00,59.5,50.5,29.85,ESE,121,28.0,28.0,72,0.00,,,0.00,Wunderground v.1.15,2013-03-11 10:45:00,
2013-03-11 06:46:00,59.5,50.5,29.84,SE,136,17.0,28.0,72,0.00,,,0.00,Wunderground v.1.15,2013-03-11 10:46:00,
2013-03-11 06:48:00,59.5,50.5,29.85,South,182,10.0,28.0,72,0.00,,,0.00,Wunderground v.1.15,2013-03-11 10:48:00,
2013-03-11 06:50:00,59.5,50.5,29.85,SSE,160,13.0,14.0,72,0.00,,,0.00,Wunderground v.1.15,2013-03-11 10:50:00,
2013-03-11 06:51:00,59.4,50.4,29.85,WSW,246,2.0,14.0,72,0.00,,,0.00,Wunderground v.1.15,2013-03-11 10:51:00,
2013-03-11 06:54:00,59.3,50.6,29.84,SSW,205,7.0,22.0,73,0.00,,,0.00,Wunderground v.1.15,2013-03-11 10:54:00,
2013-03-11 06:55:00,59.3,50.6,29.84,SE,133,5.0,22.0,73,0.00,,,0.00,Wunderground v.1.15,2013-03-11 10:55:00,
2013-03-11 06:56:00,59.3,50.6,29.84,SSW,208,7.0,22.0,73,0.00,,,0.00,Wunderground v.1.15,2013-03-11 10:56:00,
2013-03-11 06:57:00,59.2,50.5,29.84,SW,214,12.0,25.0,73,0.00,,,0.00,Wunderground v.1.15,2013-03-11 10:57:00,
2013-03-11 06:59:00,59.2,50.5,29.84,ESE,109,14.0,25.0,73,0.00,,,0.00,Wunderground v.1.15,2013-03-11 10:59:00,
2013-03-11 07:00:00,59.2,50.5,29.84,East,101,7.0,20.0,73,0.00,,,0.00,Wunderground v.1.15,2013-03-11 11:00:00,
2013-03-11 07:01:00,59.2,50.5,29.84,South,172,9.0,20.0,73,0.00,,,0.00,Wunderground v.1.15,2013-03-11 11:01:00,
2013-03-11 07:03:00,59.2,50.5,29.84,SSW,196,16.0,20.0,73,0.00,,,0.00,Wunderground v.1.15,2013-03-11 11:03:00,
2013-03-11 07:05:00,59.1,50.5,29.84,SSW,206,11.0,22.0,73,0.00,,,0.00,Wunderground v.1.15,2013-03-11 11:05:00,
2013-03-11 07:06:00,59.1,50.5,29.84,SSW,207,6.0,22.0,73,0.00,,,0.00,Wunderground v.1.15,2013-03-11 11:06:00,
2013-03-11 07:09:00,59.0,50.4,29.83,SSW,198,10.0,22.0,73,0.00,,,0.00,Wunderground v.1.15,2013-03-11 11:09:00,
2013-03-11 07:10:00,59.0,50.4,29.83,SE,133,10.0,18.0,73,0.00,,,0.00,Wunderground v.1.15,2013-03-11 11:10:00,
2013-03-11 07:12:00,59.0,50.7,29.82,SE,146,13.0,22.0,74,0.00,,,0.00,Wunderground v.1.15,2013-03-11 11:12:00,
2013-03-11 07:14:00,59.0,50.7,29.82,SSE,159,11.0,24.0,74,0.00,,,0.00,Wunderground v.1.15,2013-03-11 11:14:00,
2013-03-11 07:15:00,59.0,50.7,29.83,South,182,18.0,24.0,74,0.00,,,0.00,Wunderground v.1.15,2013-03-11 11:15:00,
2013-03-11 07:17:00,59.0,50.7,29.83,South,175,7.0,24.0,74,0.00,,,0.00,Wunderground v.1.15,2013-03-11 11:17:00,
2013-03-11 07:19:00,59.0,50.7,29.83,SE,134,25.0,25.0,74,0.00,,,0.00,Wunderground v.1.15,2013-03-11 11:19:00,
2013-03-11 07:21:00,59.0,50.7,29.82,SSE,167,4.0,21.0,74,0.00,,,0.00,Wunderground v.1.15,2013-03-11 11:21:00,
2013-03-11 07:22:00,59.0,50.7,29.82,South,182,11.0,21.0,74,0.00,,,0.00,Wunderground v.1.15,2013-03-11 11:22:00,
2013-03-11 07:24:00,59.0,50.7,29.83,SSE,155,10.0,23.0,74,0.00,,,0.00,Wunderground v.1.15,2013-03-11 11:24:00,
2013-03-11 07:27:00,59.0,50.7,29.83,South,173,16.0,23.0,74,0.00,,,0.00,Wunderground v.1.15,2013-03-11 11:27:00,
2013-03-11 07:29:00,59.0,50.7,29.82,SW,236,8.0,25.0,74,0.00,,,0.00,Wunderground v.1.15,2013-03-11 11:29:00,
2013-03-11 07:32:00,59.0,50.7,29.82,SE,129,10.0,21.0,74,0.00,,,0.00,Wunderground v.1.15,2013-03-11 11:32:00,
2013-03-11 07:34:00,59.0,51.1,29.82,SSE,159,13.0,21.0,75,0.00,,,0.00,Wunderground v.1.15,2013-03-11 11:34:00,
2013-03-11 07:37:00,59.0,50.7,29.82,SE,142,9.0,26.0,74,0.00,,,0.00,Wunderground v.1.15,2013-03-11 11:37:00,
2013-03-11 07:38:00,59.0,50.7,29.82,ESE,109,21.0,26.0,74,0.00,,,0.00,Wunderground v.1.15,2013-03-11 11:38:00,
2013-03-11 07:39:00,59.0,50.7,29.82,South,183,11.0,18.0,74,0.00,,,0.00,Wunderground v.1.15,2013-03-11 11:39:00,
2013-03-11 07:42:00,59.0,50.7,29.83,SE,145,13.0,21.0,74,0.00,,,0.00,Wunderground v.1.15,2013-03-11 11:42:00,
2013-03-11 07:43:00,59.0,50.7,29.83,SSE,167,10.0,21.0,74,0.00,,,0.00,Wunderground v.1.15,2013-03-11 11:43:00,
2013-03-11 07:45:00,59.0,50.7,29.84,South,173,5.0,21.0,74,0.00,,,0.00,Wunderground v.1.15,2013-03-11 11:45:00,
2013-03-11 07:48:00,59.0,50.7,29.84,East,95,14.0,21.0,74,0.00,,,0.00,Wunderground v.1.15,2013-03-11 11:48:00,
2013-03-11 07:51:00,59.0,50.7,29.85,SSW,192,5.0,18.0,74,0.00,,,0.00,Wunderground v.1.15,2013-03-11 11:51:00,
2013-03-11 07:53:00,59.0,50.7,29.85,SW,227,12.0,20.0,74,0.00,,,0.00,Wunderground v.1.15,2013-03-11 11:53:00,
2013-03-11 07:54:00,59.0,50.7,29.85,SSE,162,6.0,20.0,74,0.00,,,0.00,Wunderground v.1.15,2013-03-11 11:54:00,
2013-03-11 07:56:00,59.0,50.7,29.84,SSE,157,15.0,21.0,74,0.00,,,0.00,Wunderground v.1.15,2013-03-11 11:56:00,
2013-03-11 07:58:00,59.0,50.7,29.83,SE,136,9.0,21.0,74,0.00,,,0.00,Wunderground v.1.15,2013-03-11 11:58:00,
2013-03-11 07:59:00,59.0,50.7,29.83,South,178,6.0,21.0,74,0.00,,,0.00,Wunderground v.1.15,2013-03-11 11:59:00,
2013-03-11 08:02:00,59.0,50.7,29.83,SE,134,11.0,16.0,74,0.00,,,0.00,Wunderground v.1.15,2013-03-11 12:02:00,
2013-03-11 08:03:00,59.0,50.7,29.83,SE,142,5.0,16.0,74,0.00,,,0.00,Wunderground v.1.15,2013-03-11 12:03:00,
2013-03-11 08:04:00,59.0,50.7,29.82,SE,141,10.0,16.0,74,0.00,,,0.00,Wunderground v.1.15,2013-03-11 12:04:00,
2013-03-11 08:07:00,59.0,50.7,29.82,SE,132,8.0,24.0,74,0.00,,,0.00,Wunderground v.1.15,2013-03-11 12:07:00,
2013-03-11 08:08:00,59.0,50.7,29.82,South,180,10.0,24.0,74,0.00,,,0.00,Wunderground v.1.15,2013-03-11 12:08:00,
2013-03-11 08:10:00,59.0,50.7,29.82,SSW,196,8.0,12.0,74,0.00,,,0.00,Wunderground v.1.15,2013-03-11 12:10:00,
2013-03-11 08:12:00,59.0,50.7,29.83,WSW,240,10.0,16.0,74,0.00,,,0.00,Wunderground v.1.15,2013-03-11 12:12:00,
2013-03-11 08:13:00,59.0,50.7,29.81,SSE,152,9.0,16.0,74,0.00,,,0.00,Wunderground v.1.15,2013-03-11 12:13:00,
2013-03-11 08:16:00,59.0,50.7,29.81,SSW,213,10.0,21.0,74,0.00,,,0.00,Wunderground v.1.15,2013-03-11 12:16:00,
2013-03-11 08:17:00,59.0,50.7,29.81,South,183,3.0,21.0,74,0.00,,,0.00,Wunderground v.1.15,2013-03-11 12:17:00,
2013-03-11 08:18:00,59.0,50.7,29.82,SE,142,7.0,21.0,74,0.00,,,0.00,Wunderground v.1.15,2013-03-11 12:18:00,
2013-03-11 08:22:00,59.0,50.7,29.81,SW,227,14.0,14.0,74,0.00,,,0.00,Wunderground v.1.15,2013-03-11 12:22:00,
2013-03-11 08:23:00,59.0,50.7,29.82,SSW,209,10.0,21.0,74,0.00,,,0.00,Wunderground v.1.15,2013-03-11 12:23:00,
2013-03-11 08:27:00,59.0,51.1,29.82,SW,217,13.0,26.0,75,0.00,,,0.00,Wunderground v.1.15,2013-03-11 12:27:00,
2013-03-11 08:28:00,59.0,50.7,29.81,ESE,106,7.0,26.0,74,0.00,,,0.00,Wunderground v.1.15,2013-03-11 12:28:00,
2013-03-11 08:29:00,59.0,50.7,29.81,SSE,163,7.0,26.0,74,0.00,,,0.00,Wunderground v.1.15,2013-03-11 12:29:00,
2013-03-11 08:32:00,59.0,51.1,29.81,SSE,164,18.0,20.0,75,0.00,,,0.00,Wunderground v.1.15,2013-03-11 12:32:00,
2013-03-11 08:34:00,59.0,51.1,29.81,South,170,10.0,20.0,75,0.00,,,0.00,Wunderground v.1.15,2013-03-11 12:34:00,
2013-03-11 08:37:00,59.0,51.1,29.81,South,169,15.0,21.0,75,0.00,,,0.00,Wunderground v.1.15,2013-03-11 12:37:00,
2013-03-11 08:38:00,59.0,51.1,29.81,South,173,13.0,21.0,75,0.00,,,0.00,Wunderground v.1.15,2013-03-11 12:38:00,
2013-03-11 08:39:00,59.0,51.1,29.81,SW,228,12.0,21.0,75,0.00,,,0.00,Wunderground v.1.15,2013-03-11 12:39:00,
2013-03-11 08:42:00,59.0,51.1,29.81,SSE,159,11.0,25.0,75,0.00,,,0.00,Wunderground v.1.15,2013-03-11 12:42:00,
2013-03-11 08:44:00,59.0,51.1,29.81,SSW,194,10.0,25.0,75,0.00,,,0.00,Wunderground v.1.15,2013-03-11 12:44:00,
2013-03-11 08:47:00,59.0,51.1,29.80,SW,223,6.0,25.0,75,0.00,,,0.00,Wunderground v.1.15,2013-03-11 12:47:00,
2013-03-11 08:49:00,59.0,51.1,29.80,SSE,153,13.0,13.0,75,0.00,,,0.00,Wunderground v.1.15,2013-03-11 12:49:00,
2013-03-11 08:50:00,59.0,51.1,29.80,South,173,9.0,15.0,75,0.00,,,0.00,Wunderground v.1.15,2013-03-11 12:50:00,
2013-03-11 08:53:00,59.0,51.1,29.80,South,175,11.0,21.0,75,0.00,,,0.00,Wunderground v.1.15,2013-03-11 12:53:00,
2013-03-11 08:55:00,59.0,51.1,29.81,ESE,111,11.0,25.0,75,0.00,,,0.00,Wunderground v.1.15,2013-03-11 12:55:00,
2013-03-11 08:57:00,59.0,51.1,29.81,SW,220,4.0,25.0,75,0.00,,,0.00,Wunderground v.1.15,2013-03-11 12:57:00,
2013-03-11 08:58:00,59.0,51.1,29.82,SE,142,8.0,25.0,75,0.00,,,0.00,Wunderground v.1.15,2013-03-11 12:58:00,
2013-03-11 09:00:00,59.0,51.1,29.81,SSE,149,19.0,19.0,75,0.00,,,0.00,Wunderground v.1.15,2013-03-11 13:00:00,
2013-03-11 09:03:00,59.0,51.1,29.81,SSE,156,9.0,23.0,75,0.00,,,0.00,Wunderground v.1.15,2013-03-11 13:03:00,
2013-03-11 09:05:00,59.0,51.1,29.81,SE,146,7.0,23.0,75,0.00,,,0.00,Wunderground v.1.15,2013-03-11 13:05:00,
2013-03-11 09:08:00,59.0,51.1,29.80,SSW,202,11.0,23.0,75,0.00,,,0.00,Wunderground v.1.15,2013-03-11 13:08:00,
2013-03-11 09:09:00,59.0,51.1,29.81,SE,140,13.0,23.0,75,0.00,,,0.00,Wunderground v.1.15,2013-03-11 13:09:00,
2013-03-11 09:10:00,59.0,51.1,29.80,SSW,205,6.0,11.0,75,0.00,,,0.00,Wunderground v.1.15,2013-03-11 13:10:00,
2013-03-11 09:11:00,59.0,51.1,29.80,SSE,157,13.0,13.0,75,0.00,,,0.00,Wunderground v.1.15,2013-03-11 13:11:00,
2013-03-11 09:14:00,59.0,51.1,29.81,SSE,153,11.0,14.0,75,0.00,,,0.00,Wunderground v.1.15,2013-03-11 13:14:00,
2013-03-11 09:15:00,59.0,51.1,29.81,SSW,205,13.0,18.0,75,0.00,,,0.00,Wunderground v.1.15,2013-03-11 13:15:00,
2013-03-11 09:17:00,59.1,50.8,29.80,SE,140,14.0,22.0,74,0.00,,,0.00,Wunderground v.1.15,2013-03-11 13:17:00,
2013-03-11 09:19:00,59.3,51.4,29.79,South,187,6.0,22.0,75,0.00,,,0.00,Wunderground v.1.15,2013-03-11 13:19:00,
2013-03-11 09:20:00,59.3,51.4,29.81,South,177,10.0,14.0,75,0.00,,,0.00,Wunderground v.1.15,2013-03-11 13:20:00,
2013-03-11 09:23:00,59.4,51.1,29.78,SW,219,27.0,27.0,74,0.00,,,0.00,Wunderground v.1.15,2013-03-11 13:23:00,
2013-03-11 09:24:00,59.4,51.1,29.78,ESE,122,14.0,27.0,74,0.00,,,0.00,Wunderground v.1.15,2013-03-11 13:24:00,
2013-03-11 09:25:00,59.4,51.1,29.78,SSE,165,6.0,27.0,74,0.00,,,0.00,Wunderground v.1.15,2013-03-11 13:25:00,
2013-03-11 09:28:00,59.4,51.1,29.79,SE,145,13.0,27.0,74,0.00,,,0.00,Wunderground v.1.15,2013-03-11 13:28:00,
2013-03-11 09:29:00,59.4,51.1,29.79,SE,140,14.0,27.0,74,0.00,,,0.00,Wunderground v.1.15,2013-03-11 13:29:00,
2013-03-11 09:30:00,59.3,51.0,29.79,South,191,4.0,10.0,74,0.00,,,0.00,Wunderground v.1.15,2013-03-11 13:30:00,
2013-03-11 09:31:00,59.4,51.5,29.79,SSW,211,11.0,11.0,75,0.00,,,0.00,Wunderground v.1.15,2013-03-11 13:31:00,
2013-03-11 09:33:00,59.3,51.4,29.79,SSE,150,19.0,19.0,75,0.00,,,0.00,Wunderground v.1.15,2013-03-11 13:33:00,
2013-03-11 09:34:00,59.4,51.5,29.78,South,169,5.0,19.0,75,0.00,,,0.00,Wunderground v.1.15,2013-03-11 13:34:00,
2013-03-11 09:35:00,59.3,51.4,29.78,SE,138,13.0,19.0,75,0.00,,,0.00,Wunderground v.1.15,2013-03-11 13:35:00,
2013-03-11 09:36:00,59.4,51.5,29.79,SSE,165,3.0,19.0,75,0.00,,,0.00,Wunderground v.1.15,2013-03-11 13:36:00,
2013-03-11 09:38:00,59.4,51.5,29.80,ESE,111,7.0,19.0,75,0.00,,,0.00,Wunderground v.1.15,2013-03-11 13:38:00,
2013-03-11 09:40:00,59.5,51.6,29.80,SW,227,20.0,22.0,75,0.00,,,0.00,Wunderground v.1.15,2013-03-11 13:40:00,
2013-03-11 09:41:00,59.6,51.3,29.78,South,172,17.0,25.0,74,0.00,,,0.00,Wunderground v.1.15,2013-03-11 13:41:00,
2013-03-11 09:44:00,59.6,51.3,29.80,South,191,12.0,25.0,74,0.00,,,0.00,Wunderground v.1.15,2013-03-11 13:44:00,
2013-03-11 09:45:00,59.7,51.4,29.79,South,171,6.0,25.0,74,0.00,,,0.00,Wunderground v.1.15,2013-03-11 13:45:00,
2013-03-11 09:47:00,59.7,51.4,29.80,South,169,9.0,25.0,74,0.00,,,0.00,Wunderground v.1.15,2013-03-11 13:47:00,
2013-03-11 09:49:00,59.8,51.5,29.81,SSW,207,4.0,25.0,74,0.00,,,0.00,Wunderground v.1.15,2013-03-11 13:49:00,
2013-03-11 09:50:00,59.9,51.6,29.80,South,169,16.0,27.0,74,0.00,,,0.00,Wunderground v.1.15,2013-03-11 13:50:00,
2013-03-11 09:52:00,59.9,51.6,29.80,SSE,163,11.0,27.0,74,0.00,,,0.00,Wunderground v.1.15,2013-03-11 13:52:00,
2013-03-11 09:54:00,60.0,51.7,29.81,SSW,209,19.0,27.0,74,0.00,,,0.00,Wunderground v.1.15,2013-03-11 13:54:00,
2013-03-11 09:55:00,60.0,51.7,29.81,South,185,11.0,27.0,74,0.00,,,0.00,Wunderground v.1.15,2013-03-11 13:55:00,
2013-03-11 09:57:00,60.1,51.8,29.81,SSE,156,14.0,27.0,74,0.00,,,0.00,Wunderground v.1.15,2013-03-11 13:57:00,
2013-03-11 09:59:00,60.1,51.8,29.82,SSE,163,13.0,13.0,74,0.00,,,0.00,Wunderground v.1.15,2013-03-11 13:59:00,
2013-03-11 10:00:00,60.1,51.8,29.82,SSW,212,11.0,13.0,74,0.00,,,0.00,Wunderground v.1.15,2013-03-11 14:00:00,
2013-03-11 10:02:00,60.2,51.9,29.81,South,176,11.0,17.0,74,0.00,,,0.00,Wunderground v.1.15,2013-03-11 14:02:00,
2013-03-11 10:05:00,60.1,51.8,29.81,South,190,7.0,17.0,74,0.00,,,0.00,Wunderground v.1.15,2013-03-11 14:05:00,
2013-03-11 10:07:00,60.1,51.8,29.81,SSE,157,9.0,22.0,74,0.00,,,0.00,Wunderground v.1.15,2013-03-11 14:07:00,
2013-03-11 10:10:00,60.1,51.8,29.80,SSE,161,5.0,11.0,74,0.00,,,0.00,Wunderground v.1.15,2013-03-11 14:10:00,
2013-03-11 10:12:00,60.1,51.8,29.80,SE,145,20.0,29.0,74,0.00,,,0.00,Wunderground v.1.15,2013-03-11 14:12:00,
2013-03-11 10:15:00,60.1,51.8,29.80,South,184,6.0,29.0,74,0.00,,,0.00,Wunderground v.1.15,2013-03-11 14:15:00,
2013-03-11 10:16:00,60.1,51.8,29.81,South,180,6.0,29.0,74,0.00,,,0.00,Wunderground v.1.15,2013-03-11 14:16:00,
2013-03-11 10:17:00,60.0,51.7,29.81,SSE,150,22.0,29.0,74,0.00,,,0.00,Wunderground v.1.15,2013-03-11 14:17:00,
2013-03-11 10:21:00,60.0,51.7,29.79,SSE,159,11.0,16.0,74,0.00,,,0.00,Wunderground v.1.15,2013-03-11 14:21:00,
2013-03-11 10:22:00,60.0,51.7,29.78,SE,138,11.0,16.0,74,0.00,,,0.00,Wunderground v.1.15,2013-03-11 14:22:00,
2013-03-11 10:23:00,60.0,51.7,29.79,SE,142,12.0,17.0,74,0.00,,,0.00,Wunderground v.1.15,2013-03-11 14:23:00,
2013-03-11 10:27:00,60.0,51.7,29.79,South,173,9.0,18.0,74,0.00,,,0.00,Wunderground v.1.15,2013-03-11 14:27:00,
2013-03-11 10:28:00,60.0,51.7,29.79,WSW,241,23.0,23.0,74,0.00,,,0.00,Wunderground v.1.15,2013-03-11 14:28:00,
2013-03-11 10:29:00,60.1,51.8,29.78,SSE,162,6.0,23.0,74,0.00,,,0.00,Wunderground v.1.15,2013-03-11 14:29:00,
2013-03-11 10:33:00,60.1,51.8,29.77,SSE,167,9.0,24.0,74,0.00,,,0.00,Wunderground v.1.15,2013-03-11 14:33:00,
2013-03-11 10:34:00,60.1,51.8,29.77,SE,146,7.0,24.0,74,0.00,,,0.00,Wunderground v.1.15,2013-03-11 14:34:00,
2013-03-11 10:38:00,60.2,51.9,29.77,SSE,149,14.0,25.0,74,0.00,,,0.00,Wunderground v.1.15,2013-03-11 14:38:00,
2013-03-11 10:39:00,60.2,51.9,29.78,SE,125,12.0,25.0,74,0.00,,,0.00,Wunderground v.1.15,2013-03-11 14:39:00,
2013-03-11 10:43:00,60.3,52.0,29.78,South,180,8.0,14.0,74,0.00,,,0.00,Wunderground v.1.15,2013-03-11 14:43:00,
2013-03-11 10:44:00,60.3,52.0,29.78,East,91,7.0,14.0,74,0.00,,,0.00,Wunderground v.1.15,2013-03-11 14:44:00,
2013-03-11 10:48:00,60.4,51.7,29.78,SSW,195,7.0,19.0,73,0.00,,,0.00,Wunderground v.1.15,2013-03-11 14:48:00,
2013-03-11 10:49:00,60.4,51.7,29.78,SSW,201,5.0,19.0,73,0.00,,,0.00,Wunderground v.1.15,2013-03-11 14:49:00,
2013-03-11 10:54:00,60.5,51.8,29.80,South,169,13.0,22.0,73,0.00,,,0.00,Wunderground v.1.15,2013-03-11 14:54:00,
2013-03-11 10:55:00,60.5,51.8,29.79,NNW,341,6.0,22.0,73,0.00,,,0.00,Wunderground v.1.15,2013-03-11 14:55:00,
2013-03-11 10:59:00,60.6,51.9,29.77,South,187,9.0,22.0,73,0.00,,,0.00,Wunderground v.1.15,2013-03-11 14:59:00,
2013-03-11 11:00:00,60.6,51.9,29.77,South,175,13.0,14.0,73,0.00,,,0.00,Wunderground v.1.15,2013-03-11 15:00:00,
2013-03-11 11:04:00,60.7,52.0,29.77,SW,234,17.0,24.0,73,0.00,,,0.00,Wunderground v.1.15,2013-03-11 15:04:00,
2013-03-11 11:05:00,60.7,52.0,29.77,South,185,6.0,25.0,73,0.00,,,0.00,Wunderground v.1.15,2013-03-11 15:05:00,
2013-03-11 11:09:00,60.8,52.1,29.77,SSW,207,6.0,25.0,73,0.00,,,0.00,Wunderground v.1.15,2013-03-11 15:09:00,
2013-03-11 11:10:00,60.8,52.1,29.79,SW,215,16.0,16.0,73,0.00,,,0.00,Wunderground v.1.15,2013-03-11 15:10:00,
2013-03-11 11:11:00,60.8,51.7,29.79,SW,219,13.0,16.0,72,0.00,,,0.00,Wunderground v.1.15,2013-03-11 15:11:00,
2013-03-11 11:14:00,60.9,51.8,29.79,SSW,195,9.0,19.0,72,0.00,,,0.00,Wunderground v.1.15,2013-03-11 15:14:00,
2013-03-11 11:15:00,61.0,51.9,29.79,SW,221,17.0,23.0,72,0.00,,,0.00,Wunderground v.1.15,2013-03-11 15:15:00,
2013-03-11 11:17:00,61.0,51.9,29.78,SSE,163,12.0,23.0,72,0.00,,,0.00,Wunderground v.1.15,2013-03-11 15:17:00,
2013-03-11 11:19:00,61.1,52.0,29.77,SE,141,6.0,23.0,72,0.00,,,0.00,Wunderground v.1.15,2013-03-11 15:19:00,
2013-03-11 11:20:00,61.2,52.1,29.77,SSE,161,5.0,10.0,72,0.00,,,0.00,Wunderground v.1.15,2013-03-11 15:20:00,
2013-03-11 11:21:00,61.2,52.1,29.77,South,180,6.0,11.0,72,0.00,,,0.00,Wunderground v.1.15,2013-03-11 15:21:00,
2013-03-11 11:22:00,61.3,52.2,29.78,SW,214,9.0,11.0,72,0.00,,,0.00,Wunderground v.1.15,2013-03-11 15:22:00,
2013-03-11 11:24:00,61.3,52.2,29.79,SSW,207,12.0,16.0,72,0.00,,,0.00,Wunderground v.1.15,2013-03-11 15:24:00,
2013-03-11 11:25:00,61.4,51.9,29.79,SSE,157,10.0,19.0,71,0.00,,,0.00,Wunderground v.1.15,2013-03-11 15:25:00,
2013-03-11 11:26:00,61.4,51.9,29.79,SSW,213,5.0,19.0,71,0.00,,,0.00,Wunderground v.1.15,2013-03-11 15:26:00,
2013-03-11 11:27:00,61.5,52.0,29.78,South,173,5.0,19.0,71,0.00,,,0.00,Wunderground v.1.15,2013-03-11 15:27:00,
2013-03-11 11:29:00,61.5,52.0,29.77,SE,129,15.0,15.0,71,0.00,,,0.00,Wunderground v.1.15,2013-03-11 15:29:00,
2013-03-11 11:30:00,61.5,52.0,29.77,SE,137,6.0,15.0,71,0.00,,,0.00,Wunderground v.1.15,2013-03-11 15:30:00,
2013-03-11 11:31:00,61.5,52.0,29.77,SSE,161,16.0,16.0,71,0.00,,,0.00,Wunderground v.1.15,2013-03-11 15:31:00,
2013-03-11 11:33:00,61.6,52.1,29.79,SSW,209,10.0,16.0,71,0.00,,,0.00,Wunderground v.1.15,2013-03-11 15:33:00,
2013-03-11 11:34:00,61.7,52.2,29.80,South,175,6.0,16.0,71,0.00,,,0.00,Wunderground v.1.15,2013-03-11 15:34:00,
2013-03-11 11:35:00,61.8,52.3,29.80,SE,138,15.0,16.0,71,0.00,,,0.00,Wunderground v.1.15,2013-03-11 15:35:00,
2013-03-11 11:36:00,61.8,51.9,29.80,SE,141,8.0,16.0,70,0.00,,,0.00,Wunderground v.1.15,2013-03-11 15:36:00,
2013-03-11 11:38:00,61.9,52.0,29.81,SSW,209,5.0,16.0,70,0.00,,,0.00,Wunderground v.1.15,2013-03-11 15:38:00,
2013-03-11 11:39:00,61.9,52.0,29.81,SSW,212,18.0,18.0,70,0.00,,,0.00,Wunderground v.1.15,2013-03-11 15:39:00,
2013-03-11 11:42:00,62.1,52.2,29.80,SW,222,18.0,23.0,70,0.00,,,0.00,Wunderground v.1.15,2013-03-11 15:42:00,
2013-03-11 11:43:00,62.3,52.0,29.80,SSW,209,6.0,23.0,69,0.00,,,0.00,Wunderground v.1.15,2013-03-11 15:43:00,
2013-03-11 11:45:00,62.5,52.2,29.80,SSW,211,15.0,23.0,69,0.00,,,0.00,Wunderground v.1.15,2013-03-11 15:45:00,
2013-03-11 11:47:00,62.7,52.0,29.80,WSW,240,13.0,26.0,68,0.00,,,0.00,Wunderground v.1.15,2013-03-11 15:47:00,
2013-03-11 11:48:00,62.7,52.0,29.80,SW,222,4.0,26.0,68,0.00,,,0.00,Wunderground v.1.15,2013-03-11 15:48:00,
2013-03-11 11:50:00,62.8,51.7,29.80,SSW,204,9.0,17.0,67,0.00,,,0.00,Wunderground v.1.15,2013-03-11 15:50:00,
2013-03-11 11:53:00,62.9,51.8,29.80,South,190,10.0,22.0,67,0.00,,,0.00,Wunderground v.1.15,2013-03-11 15:53:00,
2013-03-11 11:55:00,63.0,52.3,29.80,SW,233,11.0,22.0,68,0.00,,,0.00,Wunderground v.1.15,2013-03-11 15:55:00,
2013-03-11 11:58:00,63.1,52.0,29.81,SSE,156,4.0,22.0,67,0.00,,,0.00,Wunderground v.1.15,2013-03-11 15:58:00,
2013-03-11 11:59:00,63.1,52.0,29.80,South,183,11.0,22.0,67,0.00,,,0.00,Wunderground v.1.15,2013-03-11 15:59:00,
2013-03-11 12:00:00,63.2,52.1,29.79,SW,236,8.0,13.0,67,0.00,,,0.00,Wunderground v.1.15,2013-03-11 16:00:00,
2013-03-11 12:03:00,63.3,51.7,29.78,SSW,196,7.0,20.0,66,0.00,,,0.00,Wunderground v.1.15,2013-03-11 16:03:00,
2013-03-11 12:04:00,63.3,51.7,29.77,SSW,209,14.0,20.0,66,0.00,,,0.00,Wunderground v.1.15,2013-03-11 16:04:00,
2013-03-11 12:05:00,63.4,51.8,29.78,WSW,238,10.0,20.0,66,0.00,,,0.00,Wunderground v.1.15,2013-03-11 16:05:00,
2013-03-11 12:09:00,63.4,51.4,29.78,SSW,208,9.0,20.0,65,0.00,,,0.00,Wunderground v.1.15,2013-03-11 16:09:00,
2013-03-11 12:10:00,63.5,51.9,29.78,South,177,8.0,17.0,66,0.00,,,0.00,Wunderground v.1.15,2013-03-11 16:10:00,
2013-03-11 12:11:00,63.5,51.5,29.78,SSW,207,12.0,21.0,65,0.00,,,0.00,Wunderground v.1.15,2013-03-11 16:11:00,
2013-03-11 12:14:00,63.5,51.5,29.78,West,265,4.0,22.0,65,0.00,,,0.00,Wunderground v.1.15,2013-03-11 16:14:00,
2013-03-11 12:15:00,63.5,51.5,29.78,SSE,161,5.0,22.0,65,0.00,,,0.00,Wunderground v.1.15,2013-03-11 16:15:00,
2013-03-11 12:17:00,63.5,51.5,29.78,South,183,11.0,22.0,65,0.00,,,0.00,Wunderground v.1.15,2013-03-11 16:17:00,
2013-03-11 12:20:00,63.6,51.6,29.79,South,191,12.0,16.0,65,0.00,,,0.00,Wunderground v.1.15,2013-03-11 16:20:00,
2013-03-11 12:22:00,63.6,51.6,29.79,South,191,6.0,16.0,65,0.00,,,0.00,Wunderground v.1.15,2013-03-11 16:22:00,
2013-03-11 12:25:00,63.7,51.7,29.78,SW,236,14.0,16.0,65,0.00,,,0.00,Wunderground v.1.15,2013-03-11 16:25:00,
2013-03-11 12:27:00,63.7,51.7,29.77,ESE,105,2.0,23.0,65,0.00,,,0.00,Wunderground v.1.15,2013-03-11 16:27:00,
2013-03-11 12:30:00,63.7,51.7,29.77,SSE,165,11.0,12.0,65,0.00,,,0.00,Wunderground v.1.15,2013-03-11 16:30:00,
2013-03-11 12:31:00,63.7,51.7,29.77,SSE,160,5.0,12.0,65,0.00,,,0.00,Wunderground v.1.15,2013-03-11 16:31:00,
2013-03-11 12:32:00,63.7,51.7,29.77,SW,215,12.0,12.0,65,0.00,,,0.00,Wunderground v.1.15,2013-03-11 16:32:00,
2013-03-11 12:35:00,63.7,51.3,29.76,SE,136,6.0,28.0,64,0.00,,,0.00,Wunderground v.1.15,2013-03-11 16:35:00,
2013-03-11 12:36:00,63.8,51.4,29.76,SE,128,14.0,28.0,64,0.00,,,0.00,Wunderground v.1.15,2013-03-11 16:36:00,
2013-03-11 12:38:00,63.8,51.4,29.76,South,175,17.0,28.0,64,0.00,,,0.00,Wunderground v.1.15,2013-03-11 16:38:00,
2013-03-11 12:40:00,63.8,51.4,29.76,South,190,10.0,10.0,64,0.00,,,0.00,Wunderground v.1.15,2013-03-11 16:40:00,
2013-03-11 12:41:00,63.8,51.4,29.76,SSE,149,5.0,11.0,64,0.00,,,0.00,Wunderground v.1.15,2013-03-11 16:41:00,
2013-03-11 12:42:00,63.8,51.4,29.76,SSW,196,5.0,11.0,64,0.00,,,0.00,Wunderground v.1.15,2013-03-11 16:42:00,
2013-03-11 12:43:00,63.8,51.4,29.76,SSW,205,14.0,14.0,64,0.00,,,0.00,Wunderground v.1.15,2013-03-11 16:43:00,
2013-03-11 12:46:00,63.9,51.5,29.75,WSW,243,11.0,15.0,64,0.00,,,0.00,Wunderground v.1.15,2013-03-11 16:46:00,
2013-03-11 12:47:00,63.9,51.5,29.75,SSE,150,11.0,23.0,64,0.00,,,0.00,Wunderground v.1.15,2013-03-11 16:47:00,
2013-03-11 12:48:00,64.0,51.1,29.75,SSE,148,12.0,23.0,63,0.00,,,0.00,Wunderground v.1.15,2013-03-11 16:48:00,
2013-03-11 12:49:00,64.0,51.1,29.75,SE,130,13.0,23.0,63,0.00,,,0.00,Wunderground v.1.15,2013-03-11 16:49:00,
2013-03-11 12:51:00,64.0,51.1,29.76,SE,141,13.0,13.0,63,0.00,,,0.00,Wunderground v.1.15,2013-03-11 16:51:00,
2013-03-11 12:52:00,64.1,51.7,29.76,South,185,11.0,13.0,64,0.00,,,0.00,Wunderground v.1.15,2013-03-11 16:52:00,
2013-03-11 12:53:00,64.1,51.2,29.75,WSW,248,7.0,22.0,63,0.00,,,0.00,Wunderground v.1.15,2013-03-11 16:53:00,
2013-03-11 12:54:00,64.1,51.2,29.75,SW,220,12.0,22.0,63,0.00,,,0.00,Wunderground v.1.15,2013-03-11 16:54:00,
2013-03-11 12:56:00,64.2,51.3,29.75,SSW,206,9.0,22.0,63,0.00,,,0.00,Wunderground v.1.15,2013-03-11 16:56:00,
2013-03-11 12:57:00,64.2,51.3,29.75,SSW,196,11.0,22.0,63,0.00,,,0.00,Wunderground v.1.15,2013-03-11 16:57:00,
2013-03-11 12:58:00,64.3,51.4,29.75,SW,223,16.0,22.0,63,0.00,,,0.00,Wunderground v.1.15,2013-03-11 16:58:00,
2013-03-11 12:59:00,64.3,51.4,29.75,SSW,205,10.0,22.0,63,0.00,,,0.00,Wunderground v.1.15,2013-03-11 16:59:00,
2013-03-11 13:02:00,64.5,51.2,29.74,ESE,119,17.0,18.0,62,0.00,,,0.00,Wunderground v.1.15,2013-03-11 17:02:00,
2013-03-11 13:04:00,64.5,51.2,29.73,SSW,200,13.0,19.0,62,0.00,,,0.00,Wunderground v.1.15,2013-03-11 17:04:00,
2013-03-11 13:08:00,64.7,51.4,29.73,SSW,206,8.0,19.0,62,0.00,,,0.00,Wunderground v.1.15,2013-03-11 17:08:00,
2013-03-11 13:09:00,64.7,51.4,29.75,SSW,202,13.0,19.0,62,0.00,,,0.00,Wunderground v.1.15,2013-03-11 17:09:00,
2013-03-11 13:10:00,64.7,51.4,29.75,SW,221,7.0,11.0,62,0.00,,,0.00,Wunderground v.1.15,2013-03-11 17:10:00,
2013-03-11 13:13:00,64.6,51.3,29.74,SE,144,6.0,15.0,62,0.00,,,0.00,Wunderground v.1.15,2013-03-11 17:13:00,
2013-03-11 13:14:00,64.6,51.7,29.73,SSW,194,5.0,15.0,63,0.00,,,0.00,Wunderground v.1.15,2013-03-11 17:14:00,
2013-03-11 13:15:00,64.6,51.7,29.73,SE,140,12.0,15.0,63,0.00,,,0.00,Wunderground v.1.15,2013-03-11 17:15:00,
2013-03-11 13:18:00,64.6,51.3,29.73,South,171,14.0,20.0,62,0.00,,,0.00,Wunderground v.1.15,2013-03-11 17:18:00,
2013-03-11 13:19:00,64.5,51.2,29.73,SSW,199,9.0,11.0,62,0.00,,,0.00,Wunderground v.1.15,2013-03-11 17:19:00,
2013-03-11 13:20:00,64.5,52.0,29.73,ESE,122,11.0,29.0,64,0.00,,,0.00,Wunderground v.1.15,2013-03-11 17:20:00,
2013-03-11 13:23:00,64.0,53.2,29.73,South,180,13.0,29.0,68,0.00,,,0.00,Wunderground v.1.15,2013-03-11 17:23:00,
2013-03-11 13:24:00,63.7,52.9,29.74,South,173,9.0,29.0,68,0.00,,,0.00,Wunderground v.1.15,2013-03-11 17:24:00,
2013-03-11 13:25:00,63.2,52.9,29.73,SE,132,7.0,29.0,69,0.00,,,0.01,Wunderground v.1.15,2013-03-11 17:25:00,
2013-03-11 13:28:00,62.2,54.2,29.73,South,171,4.0,29.0,75,0.36,,,0.03,Wunderground v.1.15,2013-03-11 17:28:00,
2013-03-11 13:30:00,61.6,54.0,29.72,SSE,150,11.0,14.0,76,0.17,,,0.03,Wunderground v.1.15,2013-03-11 17:30:00,
2013-03-11 13:31:00,61.5,53.9,29.72,SE,145,7.0,14.0,76,0.17,,,0.04,Wunderground v.1.15,2013-03-11 17:31:00,
2013-03-11 13:34:00,60.8,54.2,29.74,SE,125,16.0,16.0,79,0.16,,,0.04,Wunderground v.1.15,2013-03-11 17:34:00,
2013-03-11 13:36:00,60.6,52.6,29.73,South,185,4.0,19.0,75,0.11,,,0.04,Wunderground v.1.15,2013-03-11 17:36:00,
2013-03-11 13:39:00,60.3,53.1,29.74,South,191,5.0,8.0,77,0.07,,,0.04,Wunderground v.1.15,2013-03-11 17:39:00,
2013-03-11 13:41:00,60.3,52.7,29.73,SSE,149,8.0,15.0,76,0.06,,,0.04,Wunderground v.1.15,2013-03-11 17:41:00,
2013-03-11 13:42:00,60.3,52.7,29.73,SSE,156,12.0,15.0,76,0.05,,,0.04,Wunderground v.1.15,2013-03-11 17:42:00,
2013-03-11 13:45:00,60.2,53.3,29.73,SSW,198,7.0,16.0,78,0.04,,,0.04,Wunderground v.1.15,2013-03-11 17:45:00,
2013-03-11 13:47:00,60.2,53.0,29.72,SSW,206,7.0,16.0,77,0.04,,,0.04,Wunderground v.1.15,2013-03-11 17:47:00,
2013-03-11 13:50:00,60.2,53.0,29.72,SSW,207,2.0,8.0,77,0.00,,,0.04,Wunderground v.1.15,2013-03-11 17:50:00,
2013-03-11 13:52:00,60.2,52.6,29.73,SSW,205,6.0,16.0,76,0.00,,,0.04,Wunderground v.1.15,2013-03-11 17:52:00,
2013-03-11 13:55:00,60.5,52.5,29.72,SSE,156,7.0,18.0,75,0.00,,,0.04,Wunderground v.1.15,2013-03-11 17:55:00,
2013-03-11 13:57:00,60.6,52.6,29.72,SSW,198,7.0,18.0,75,0.00,,,0.04,Wunderground v.1.15,2013-03-11 17:57:00,
2013-03-11 13:58:00,60.7,52.4,29.72,SSW,202,7.0,18.0,74,0.00,,,0.04,Wunderground v.1.15,2013-03-11 17:58:00,
2013-03-11 14:01:00,60.7,52.7,29.73,South,191,5.0,13.0,75,0.00,,,0.04,Wunderground v.1.15,2013-03-11 18:01:00,
2013-03-11 14:02:00,60.7,52.7,29.73,South,171,11.0,13.0,75,0.00,,,0.04,Wunderground v.1.15,2013-03-11 18:02:00,
2013-03-11 14:03:00,60.7,52.4,29.74,SSW,207,9.0,13.0,74,0.00,,,0.04,Wunderground v.1.15,2013-03-11 18:03:00,
2013-03-11 14:07:00,60.7,52.7,29.74,South,175,8.0,15.0,75,0.00,,,0.04,Wunderground v.1.15,2013-03-11 18:07:00,
2013-03-11 14:08:00,60.6,53.0,29.74,South,176,7.0,15.0,76,0.00,,,0.04,Wunderground v.1.15,2013-03-11 18:08:00,
2013-03-11 14:09:00,60.5,53.3,29.74,South,176,4.0,15.0,77,0.00,,,0.04,Wunderground v.1.15,2013-03-11 18:09:00,
2013-03-11 14:12:00,60.2,52.6,29.74,South,185,6.0,13.0,76,0.00,,,0.04,Wunderground v.1.15,2013-03-11 18:12:00,
2013-03-11 14:13:00,60.2,52.6,29.74,SSW,211,7.0,13.0,76,0.00,,,0.04,Wunderground v.1.15,2013-03-11 18:13:00,
2013-03-11 14:14:00,60.1,52.9,29.74,SSE,165,6.0,13.0,77,0.00,,,0.04,Wunderground v.1.15,2013-03-11 18:14:00,
2013-03-11 14:17:00,60.2,52.6,29.75,SSW,199,7.0,17.0,76,0.00,,,0.04,Wunderground v.1.15,2013-03-11 18:17:00,
2013-03-11 14:19:00,60.2,53.0,29.75,SSW,213,4.0,20.0,77,0.00,,,0.05,Wunderground v.1.15,2013-03-11 18:19:00,
2013-03-11 14:22:00,59.7,53.5,29.75,SSW,206,13.0,13.0,80,0.20,,,0.05,Wunderground v.1.15,2013-03-11 18:22:00,
2013-03-11 14:23:00,59.5,53.3,29.76,SW,226,4.0,13.0,80,0.20,,,0.06,Wunderground v.1.15,2013-03-11 18:23:00,
2013-03-11 14:24:00,59.4,53.2,29.76,SW,215,4.0,13.0,80,0.20,,,0.06,Wunderground v.1.15,2013-03-11 18:24:00,
2013-03-11 14:27:00,59.0,53.5,29.76,SW,218,5.0,13.0,82,0.12,,,0.06,Wunderground v.1.15,2013-03-11 18:27:00,
2013-03-11 14:28:00,59.0,53.5,29.76,SW,221,4.0,13.0,82,0.10,,,0.06,Wunderground v.1.15,2013-03-11 18:28:00,
2013-03-11 14:29:00,59.0,53.8,29.76,SW,220,5.0,13.0,83,0.09,,,0.06,Wunderground v.1.15,2013-03-11 18:29:00,
2013-03-11 14:32:00,58.5,53.4,29.74,WSW,238,5.0,10.0,83,0.25,,,0.08,Wunderground v.1.15,2013-03-11 18:32:00,
2013-03-11 14:34:00,58.4,53.6,29.75,WSW,239,2.0,10.0,84,0.23,,,0.08,Wunderground v.1.15,2013-03-11 18:34:00,
2013-03-11 14:35:00,58.4,53.6,29.75,WSW,239,3.0,10.0,84,0.19,,,0.08,Wunderground v.1.15,2013-03-11 18:35:00,
2013-03-11 14:38:00,58.1,53.9,29.76,SSW,207,0.0,11.0,86,0.30,,,0.10,Wunderground v.1.15,2013-03-11 18:38:00,
2013-03-11 14:39:00,58.0,54.2,29.76,SSW,209,3.0,11.0,87,0.27,,,0.10,Wunderground v.1.15,2013-03-11 18:39:00,
2013-03-11 14:40:00,57.8,54.0,29.76,West,267,4.0,5.0,87,0.24,,,0.11,Wunderground v.1.15,2013-03-11 18:40:00,
2013-03-11 14:43:00,57.5,54.0,29.76,WNW,289,2.0,7.0,88,0.78,,,0.14,Wunderground v.1.15,2013-03-11 18:43:00,
2013-03-11 14:44:00,57.4,54.2,29.76,WNW,286,4.0,7.0,89,0.53,,,0.15,Wunderground v.1.15,2013-03-11 18:44:00,
2013-03-11 14:45:00,57.3,54.1,29.76,WNW,286,4.0,7.0,89,0.52,,,0.16,Wunderground v.1.15,2013-03-11 18:45:00,
2013-03-11 14:49:00,57.0,54.1,29.77,WSW,250,3.0,7.0,90,0.49,,,0.19,Wunderground v.1.15,2013-03-11 18:49:00,
2013-03-11 14:50:00,56.9,54.0,29.78,WSW,250,3.0,4.0,90,1.00,,,0.20,Wunderground v.1.15,2013-03-11 18:50:00,
2013-03-11 14:54:00,56.7,54.4,29.77,WSW,252,2.0,4.0,92,0.44,,,0.25,Wunderground v.1.15,2013-03-11 18:54:00,
2013-03-11 14:56:00,56.6,54.3,29.78,West,264,5.0,7.0,92,0.35,,,0.26,Wunderground v.1.15,2013-03-11 18:56:00,
2013-03-11 14:59:00,56.5,54.2,29.78,West,264,1.0,7.0,92,0.36,,,0.28,Wunderground v.1.15,2013-03-11 18:59:00,
2013-03-11 15:01:00,56.5,54.5,29.78,West,265,5.0,5.0,93,0.54,,,0.29,Wunderground v.1.15,2013-03-11 19:01:00,
2013-03-11 15:02:00,56.4,54.4,29.78,West,265,3.0,5.0,93,0.54,,,0.30,Wunderground v.1.15,2013-03-11 19:02:00,
2013-03-11 15:04:00,56.4,54.4,29.77,West,267,2.0,11.0,93,0.47,,,0.31,Wunderground v.1.15,2013-03-11 19:04:00,
2013-03-11 15:07:00,56.3,54.3,29.77,WSW,254,2.0,11.0,93,0.35,,,0.33,Wunderground v.1.15,2013-03-11 19:07:00,
2013-03-11 15:09:00,56.2,54.2,29.78,WSW,250,7.0,11.0,93,0.29,,,0.34,Wunderground v.1.15,2013-03-11 19:09:00,
2013-03-11 15:12:00,56.2,54.5,29.78,WSW,250,2.0,7.0,94,0.45,,,0.36,Wunderground v.1.15,2013-03-11 19:12:00,
2013-03-11 15:13:00,56.2,54.5,29.78,WSW,250,3.0,7.0,94,0.40,,,0.36,Wunderground v.1.15,2013-03-11 19:13:00,
2013-03-11 15:15:00,56.1,54.4,29.78,SSW,211,7.0,12.0,94,0.43,,,0.38,Wunderground v.1.15,2013-03-11 19:15:00,
2013-03-11 15:17:00,56.0,54.3,29.78,SSW,211,8.0,12.0,94,0.25,,,0.39,Wunderground v.1.15,2013-03-11 19:17:00,
2013-03-11 15:18:00,56.0,54.3,29.78,SSW,213,4.0,12.0,94,0.25,,,0.39,Wunderground v.1.15,2013-03-11 19:18:00,
2013-03-11 15:20:00,56.0,54.3,29.78,SW,232,11.0,13.0,94,0.38,,,0.40,Wunderground v.1.15,2013-03-11 19:20:00,
2013-03-11 15:22:00,55.5,53.5,29.78,SW,217,4.0,13.0,93,0.26,,,0.41,Wunderground v.1.15,2013-03-11 19:22:00,
2013-03-11 15:23:00,55.4,53.4,29.77,SW,230,6.0,13.0,93,0.26,,,0.42,Wunderground v.1.15,2013-03-11 19:23:00,
2013-03-11 15:25:00,55.1,53.1,29.77,SW,226,4.0,13.0,93,0.31,,,0.43,Wunderground v.1.15,2013-03-11 19:25:00,
2013-03-11 15:27:00,55.0,53.0,29.76,WSW,244,4.0,13.0,93,0.31,,,0.44,Wunderground v.1.15,2013-03-11 19:27:00,
2013-03-11 15:28:00,55.0,53.0,29.76,WSW,245,4.0,13.0,93,0.31,,,0.44,Wunderground v.1.15,2013-03-11 19:28:00,
2013-03-11 15:32:00,54.9,52.9,29.76,WSW,238,3.0,6.0,93,0.18,,,0.45,Wunderground v.1.15,2013-03-11 19:32:00,
2013-03-11 15:33:00,54.9,52.9,29.76,WSW,238,6.0,6.0,93,0.16,,,0.46,Wunderground v.1.15,2013-03-11 19:33:00,
2013-03-11 15:37:00,54.9,53.2,29.77,WSW,238,1.0,6.0,94,0.16,,,0.47,Wunderground v.1.15,2013-03-11 19:37:00,
2013-03-11 15:39:00,54.8,53.1,29.77,WSW,238,1.0,6.0,94,0.16,,,0.47,Wunderground v.1.15,2013-03-11 19:39:00,
2013-03-11 15:42:00,54.6,52.6,29.77,SW,226,6.0,10.0,93,0.20,,,0.48,Wunderground v.1.15,2013-03-11 19:42:00,
2013-03-11 15:43:00,54.6,52.6,29.77,WSW,241,7.0,10.0,93,0.19,,,0.48,Wunderground v.1.15,2013-03-11 19:43:00,
2013-03-11 15:44:00,54.6,52.6,29.77,SW,227,7.0,10.0,93,0.15,,,0.49,Wunderground v.1.15,2013-03-11 19:44:00,
2013-03-11 15:47:00,54.5,52.5,29.78,SW,229,7.0,10.0,93,0.19,,,0.50,Wunderground v.1.15,2013-03-11 19:47:00,
2013-03-11 15:48:00,54.5,52.5,29.78,SW,230,3.0,10.0,93,0.19,,,0.50,Wunderground v.1.15,2013-03-11 19:48:00,
2013-03-11 15:49:00,54.5,52.5,29.78,SW,222,5.0,14.0,93,0.19,,,0.50,Wunderground v.1.15,2013-03-11 19:49:00,
2013-03-11 15:53:00,54.2,51.9,29.77,SSW,206,3.0,11.0,92,0.11,,,0.51,Wunderground v.1.15,2013-03-11 19:53:00,
2013-03-11 15:54:00,54.1,51.8,29.78,SW,236,3.0,11.0,92,0.11,,,0.51,Wunderground v.1.15,2013-03-11 19:54:00,
2013-03-11 15:58:00,54.0,52.0,29.77,SW,215,3.0,11.0,93,0.11,,,0.51,Wunderground v.1.15,2013-03-11 19:58:00,
2013-03-11 16:00:00,53.9,51.9,29.78,SW,221,2.0,5.0,93,0.11,,,0.52,Wunderground v.1.15,2013-03-11 20:00:00,
2013-03-11 16:03:00,53.9,51.9,29.78,SW,226,5.0,5.0,93,0.11,,,0.52,Wunderground v.1.15,2013-03-11 20:03:00,
2013-03-11 16:05:00,53.8,51.8,29.78,SW,227,5.0,5.0,93,0.09,,,0.52,Wunderground v.1.15,2013-03-11 20:05:00,
2013-03-11 16:08:00,53.7,51.7,29.78,SW,225,3.0,10.0,93,0.08,,,0.53,Wunderground v.1.15,2013-03-11 20:08:00,
2013-03-11 16:09:00,53.7,51.7,29.78,SW,229,5.0,10.0,93,0.08,,,0.53,Wunderground v.1.15,2013-03-11 20:09:00,
2013-03-11 16:10:00,53.7,51.7,29.78,SSW,198,3.0,4.0,93,0.08,,,0.53,Wunderground v.1.15,2013-03-11 20:10:00,
2013-03-11 16:13:00,53.6,51.6,29.77,SW,235,1.0,9.0,93,0.11,,,0.54,Wunderground v.1.15,2013-03-11 20:13:00,
2013-03-11 16:14:00,53.6,51.6,29.78,West,264,5.0,9.0,93,0.11,,,0.54,Wunderground v.1.15,2013-03-11 20:14:00,
2013-03-11 16:15:00,53.6,51.6,29.78,West,264,4.0,9.0,93,0.11,,,0.54,Wunderground v.1.15,2013-03-11 20:15:00,
2013-03-11 16:18:00,53.6,51.6,29.78,SW,232,2.0,10.0,93,0.12,,,0.55,Wunderground v.1.15,2013-03-11 20:18:00,
2013-03-11 16:19:00,53.6,51.6,29.78,SW,232,4.0,10.0,93,0.18,,,0.56,Wunderground v.1.15,2013-03-11 20:19:00,
2013-03-11 16:20:00,53.6,51.6,29.78,SW,232,2.0,5.0,93,0.18,,,0.56,Wunderground v.1.15,2013-03-11 20:20:00,
2013-03-11 16:23:00,53.5,51.5,29.78,SW,217,2.0,6.0,93,0.17,,,0.57,Wunderground v.1.15,2013-03-11 20:23:00,
2013-03-11 16:24:00,53.6,51.6,29.78,SW,218,4.0,6.0,93,0.17,,,0.57,Wunderground v.1.15,2013-03-11 20:24:00,
2013-03-11 16:25:00,53.5,51.5,29.78,SW,223,3.0,6.0,93,0.17,,,0.57,Wunderground v.1.15,2013-03-11 20:25:00,
2013-03-11 16:28:00,53.5,51.5,29.78,SW,223,1.0,6.0,93,0.18,,,0.58,Wunderground v.1.15,2013-03-11 20:28:00,
2013-03-11 16:29:00,53.5,51.5,29.78,SW,223,1.0,6.0,93,0.18,,,0.58,Wunderground v.1.15,2013-03-11 20:29:00,
2013-03-11 16:31:00,53.5,51.5,29.78,SW,221,2.0,8.0,93,0.17,,,0.59,Wunderground v.1.15,2013-03-11 20:31:00,
2013-03-11 16:34:00,53.5,51.8,29.78,SW,221,2.0,8.0,94,0.22,,,0.60,Wunderground v.1.15,2013-03-11 20:34:00,
2013-03-11 16:36:00,53.5,51.8,29.78,SW,221,1.0,8.0,94,0.19,,,0.61,Wunderground v.1.15,2013-03-11 20:36:00,
2013-03-11 16:39:00,53.5,51.8,29.78,SW,223,0.0,8.0,94,0.21,,,0.62,Wunderground v.1.15,2013-03-11 20:39:00,
2013-03-11 16:41:00,53.5,51.8,29.77,SW,223,0.0,2.0,94,0.19,,,0.62,Wunderground v.1.15,2013-03-11 20:41:00,
2013-03-11 16:44:00,53.4,51.7,29.78,SW,223,1.0,2.0,94,0.15,,,0.63,Wunderground v.1.15,2013-03-11 20:44:00,
2013-03-11 16:45:00,53.5,51.8,29.77,SW,223,2.0,3.0,94,0.15,,,0.63,Wunderground v.1.15,2013-03-11 20:45:00,
2013-03-11 16:47:00,53.5,51.8,29.77,SW,223,0.0,3.0,94,0.17,,,0.64,Wunderground v.1.15,2013-03-11 20:47:00,
2013-03-11 16:49:00,53.4,51.7,29.77,SW,223,0.0,3.0,94,0.17,,,0.64,Wunderground v.1.15,2013-03-11 20:49:00,
2013-03-11 16:50:00,53.4,51.7,29.77,SW,223,0.0,1.0,94,0.15,,,0.64,Wunderground v.1.15,2013-03-11 20:50:00,
2013-03-11 16:52:00,53.4,51.7,29.77,SW,223,2.0,3.0,94,0.14,,,0.65,Wunderground v.1.15,2013-03-11 20:52:00,
2013-03-11 16:53:00,53.5,51.8,29.77,SW,223,3.0,4.0,94,0.14,,,0.65,Wunderground v.1.15,2013-03-11 20:53:00,
2013-03-11 16:54:00,53.4,51.7,29.77,SW,223,1.0,4.0,94,0.18,,,0.66,Wunderground v.1.15,2013-03-11 20:54:00,
2013-03-11 16:55:00,53.4,51.7,29.77,SW,223,0.0,4.0,94,0.18,,,0.66,Wunderground v.1.15,2013-03-11 20:55:00,
2013-03-11 16:57:00,53.4,51.7,29.77,SW,223,1.0,4.0,94,0.15,,,0.66,Wunderground v.1.15,2013-03-11 20:57:00,
2013-03-11 16:58:00,53.4,51.7,29.77,SW,223,0.0,4.0,94,0.15,,,0.67,Wunderground v.1.15,2013-03-11 20:58:00,
2013-03-11 17:00:00,53.5,51.8,29.76,SW,223,4.0,4.0,94,0.15,,,0.67,Wunderground v.1.15,2013-03-11 21:00:00,
2013-03-11 17:02:00,53.5,51.8,29.76,SW,221,3.0,10.0,94,0.19,,,0.68,Wunderground v.1.15,2013-03-11 21:02:00,
2013-03-11 17:04:00,53.5,51.8,29.76,SW,221,1.0,10.0,94,0.19,,,0.68,Wunderground v.1.15,2013-03-11 21:04:00,
2013-03-11 17:05:00,53.5,51.8,29.76,SW,221,3.0,10.0,94,0.18,,,0.69,Wunderground v.1.15,2013-03-11 21:05:00,
2013-03-11 17:07:00,53.6,51.9,29.75,SW,221,1.0,10.0,94,0.17,,,0.69,Wunderground v.1.15,2013-03-11 21:07:00,
2013-03-11 17:09:00,53.6,51.9,29.75,SW,221,2.0,2.0,94,0.14,,,0.70,Wunderground v.1.15,2013-03-11 21:09:00,
2013-03-11 17:10:00,53.6,51.9,29.75,SW,221,2.0,2.0,94,0.14,,,0.70,Wunderground v.1.15,2013-03-11 21:10:00,
2013-03-11 17:12:00,53.6,51.9,29.76,SW,221,1.0,3.0,94,0.16,,,0.71,Wunderground v.1.15,2013-03-11 21:12:00,
2013-03-11 17:15:00,53.6,51.9,29.76,SW,221,4.0,4.0,94,0.16,,,0.71,Wunderground v.1.15,2013-03-11 21:15:00,
2013-03-11 17:16:00,53.7,52.0,29.76,SW,221,5.0,5.0,94,0.17,,,0.72,Wunderground v.1.15,2013-03-11 21:16:00,
2013-03-11 17:18:00,53.7,52.0,29.76,SW,221,0.0,5.0,94,0.17,,,0.72,Wunderground v.1.15,2013-03-11 21:18:00,
2013-03-11 17:20:00,53.7,52.0,29.76,SW,221,0.0,1.0,94,0.14,,,0.72,Wunderground v.1.15,2013-03-11 21:20:00,
2013-03-11 17:22:00,53.7,52.0,29.76,SW,221,1.0,2.0,94,0.14,,,0.73,Wunderground v.1.15,2013-03-11 21:22:00,
2013-03-11 17:23:00,53.7,52.0,29.76,SW,218,3.0,7.0,94,0.14,,,0.73,Wunderground v.1.15,2013-03-11 21:23:00,
2013-03-11 17:25:00,53.8,52.1,29.76,SW,218,3.0,7.0,94,0.15,,,0.74,Wunderground v.1.15,2013-03-11 21:25:00,
2013-03-11 17:27:00,53.9,52.2,29.76,SW,218,3.0,7.0,94,0.18,,,0.75,Wunderground v.1.15,2013-03-11 21:27:00,
2013-03-11 17:28:00,53.9,52.2,29.76,SW,218,3.0,7.0,94,0.18,,,0.75,Wunderground v.1.15,2013-03-11 21:28:00,
2013-03-11 17:30:00,53.9,52.2,29.76,SW,218,3.0,3.0,94,0.18,,,0.75,Wunderground v.1.15,2013-03-11 21:30:00,
2013-03-11 17:32:00,54.0,52.3,29.76,SW,228,13.0,13.0,94,0.22,,,0.76,Wunderground v.1.15,2013-03-11 21:32:00,
2013-03-11 17:33:00,54.0,52.3,29.76,SSW,213,12.0,14.0,94,0.20,,,0.76,Wunderground v.1.15,2013-03-11 21:33:00,
2013-03-11 17:35:00,54.3,52.3,29.76,SW,229,3.0,14.0,93,0.17,,,0.77,Wunderground v.1.15,2013-03-11 21:35:00,
2013-03-11 17:37:00,54.4,52.4,29.76,SSW,196,2.0,14.0,93,0.18,,,0.78,Wunderground v.1.15,2013-03-11 21:37:00,
2013-03-11 17:38:00,54.5,52.5,29.76,SSW,196,1.0,14.0,93,0.18,,,0.78,Wunderground v.1.15,2013-03-11 21:38:00,
2013-03-11 17:40:00,54.5,52.5,29.75,South,189,3.0,5.0,93,0.22,,,0.79,Wunderground v.1.15,2013-03-11 21:40:00,
2013-03-11 17:43:00,54.4,52.4,29.69,SE,138,5.0,6.0,93,0.23,,,0.80,Wunderground v.1.15,2013-03-11 21:43:00,
2013-03-11 17:45:00,54.4,52.1,29.70,South,180,4.0,15.0,92,0.25,,,0.81,Wunderground v.1.15,2013-03-11 21:45:00,
2013-03-11 17:48:00,54.3,52.3,29.70,SE,138,1.0,15.0,93,0.12,,,0.81,Wunderground v.1.15,2013-03-11 21:48:00,
2013-03-11 17:49:00,54.3,52.0,29.70,SW,223,3.0,15.0,92,0.09,,,0.81,Wunderground v.1.15,2013-03-11 21:49:00,
2013-03-11 17:54:00,54.4,51.8,29.70,South,175,4.0,11.0,91,0.06,,,0.81,Wunderground v.1.15,2013-03-11 21:54:00,
2013-03-11 17:55:00,54.5,51.9,29.69,South,184,4.0,13.0,91,0.05,,,0.81,Wunderground v.1.15,2013-03-11 21:55:00,
2013-03-11 17:57:00,54.5,51.9,29.69,SSW,211,2.0,13.0,91,0.04,,,0.81,Wunderground v.1.15,2013-03-11 21:57:00,
2013-03-11 17:59:00,54.8,51.9,29.68,South,180,5.0,14.0,90,0.04,,,0.81,Wunderground v.1.15,2013-03-11 21:59:00,
2013-03-11 18:00:00,54.8,51.9,29.68,South,186,4.0,6.0,90,0.00,,,0.81,Wunderground v.1.15,2013-03-11 22:00:00,
2013-03-11 18:01:00,54.8,51.9,29.68,South,184,4.0,6.0,90,0.00,,,0.81,Wunderground v.1.15,2013-03-11 22:01:00,
2013-03-11 18:03:00,54.9,52.0,29.69,SE,126,6.0,7.0,90,0.00,,,0.81,Wunderground v.1.15,2013-03-11 22:03:00,
2013-03-11 18:07:00,55.1,51.9,29.70,WSW,238,9.0,15.0,89,0.00,,,0.81,Wunderground v.1.15,2013-03-11 22:07:00,
2013-03-11 18:09:00,55.5,52.0,29.69,SSW,205,5.0,15.0,88,0.00,,,0.81,Wunderground v.1.15,2013-03-11 22:09:00,
2013-03-11 18:15:00,56.0,52.2,29.69,WNW,296,7.0,9.0,87,0.00,,,0.81,Wunderground v.1.15,2013-03-11 22:15:00,
2013-03-11 18:20:00,55.9,52.4,29.71,WSW,250,4.0,5.0,88,0.00,,,0.81,Wunderground v.1.15,2013-03-11 22:20:00,
2013-03-11 18:25:00,55.8,52.6,29.73,West,281,0.0,14.0,89,0.00,,,0.81,Wunderground v.1.15,2013-03-11 22:25:00,
2013-03-11 18:26:00,55.8,52.6,29.73,West,281,2.0,14.0,89,0.00,,,0.81,Wunderground v.1.15,2013-03-11 22:26:00,
2013-03-11 18:30:00,55.9,52.4,29.74,SW,221,3.0,11.0,88,0.00,,,0.81,Wunderground v.1.15,2013-03-11 22:30:00,
2013-03-11 18:31:00,55.9,52.4,29.73,SE,136,10.0,11.0,88,0.00,,,0.81,Wunderground v.1.15,2013-03-11 22:31:00,
2013-03-11 18:32:00,56.1,52.6,29.73,SW,233,6.0,12.0,88,0.00,,,0.81,Wunderground v.1.15,2013-03-11 22:32:00,
2013-03-11 18:36:00,56.2,52.7,29.73,WSW,252,0.0,12.0,88,0.00,,,0.81,Wunderground v.1.15,2013-03-11 22:36:00,
2013-03-11 18:37:00,56.1,52.6,29.73,WSW,252,1.0,12.0,88,0.00,,,0.81,Wunderground v.1.15,2013-03-11 22:37:00,
2013-03-11 18:41:00,56.0,52.5,29.71,WSW,252,1.0,3.0,88,0.00,,,0.81,Wunderground v.1.15,2013-03-11 22:41:00,
2013-03-11 18:42:00,56.0,52.8,29.72,WSW,252,3.0,3.0,89,0.00,,,0.81,Wunderground v.1.15,2013-03-11 22:42:00,
2013-03-11 18:43:00,55.9,52.7,29.72,WSW,252,3.0,3.0,89,0.00,,,0.81,Wunderground v.1.15,2013-03-11 22:43:00,
2013-03-11 18:47:00,55.7,52.5,29.72,West,281,2.0,6.0,89,0.00,,,0.81,Wunderground v.1.15,2013-03-11 22:47:00,
2013-03-11 18:49:00,55.6,52.7,29.73,WNW,282,3.0,6.0,90,0.00,,,0.81,Wunderground v.1.15,2013-03-11 22:49:00,
2013-03-11 18:52:00,55.4,52.5,29.72,West,275,1.0,4.0,90,0.00,,,0.81,Wunderground v.1.15,2013-03-11 22:52:00,
2013-03-11 18:54:00,55.3,52.4,29.73,West,275,3.0,4.0,90,0.00,,,0.81,Wunderground v.1.15,2013-03-11 22:54:00,
2013-03-11 18:58:00,55.2,52.3,29.73,West,271,2.0,5.0,90,0.00,,,0.81,Wunderground v.1.15,2013-03-11 22:58:00,
2013-03-11 18:59:00,55.2,52.6,29.73,West,271,2.0,5.0,91,0.00,,,0.81,Wunderground v.1.15,2013-03-11 22:59:00,
2013-03-11 19:00:00,55.2,52.6,29.73,West,271,3.0,3.0,91,0.00,,,0.81,Wunderground v.1.15,2013-03-11 23:00:00,
2013-03-11 19:03:00,55.1,52.5,29.73,West,272,1.0,3.0,91,0.00,,,0.81,Wunderground v.1.15,2013-03-11 23:03:00,
2013-03-11 19:05:00,55.1,52.5,29.74,West,275,2.0,4.0,91,0.00,,,0.81,Wunderground v.1.15,2013-03-11 23:05:00,
2013-03-11 19:08:00,54.9,52.6,29.73,West,277,4.0,4.0,92,0.00,,,0.81,Wunderground v.1.15,2013-03-11 23:08:00,
2013-03-11 19:09:00,54.9,52.6,29.73,WNW,294,2.0,6.0,92,0.00,,,0.81,Wunderground v.1.15,2013-03-11 23:09:00,
2013-03-11 19:10:00,54.8,52.5,29.73,WNW,296,3.0,6.0,92,0.00,,,0.81,Wunderground v.1.15,2013-03-11 23:10:00,
2013-03-11 19:13:00,54.7,52.4,29.73,WNW,295,4.0,6.0,92,0.00,,,0.81,Wunderground v.1.15,2013-03-11 23:13:00,
2013-03-11 19:14:00,54.6,52.3,29.73,WNW,295,2.0,6.0,92,0.00,,,0.81,Wunderground v.1.15,2013-03-11 23:14:00,
2013-03-11 19:15:00,54.6,52.3,29.73,WNW,295,2.0,6.0,92,0.00,,,0.81,Wunderground v.1.15,2013-03-11 23:15:00,
2013-03-11 19:18:00,54.5,52.2,29.74,NW,313,7.0,10.0,92,0.00,,,0.81,Wunderground v.1.15,2013-03-11 23:18:00,
2013-03-11 19:20:00,54.4,52.4,29.74,WNW,286,3.0,5.0,93,0.00,,,0.81,Wunderground v.1.15,2013-03-11 23:20:00,
2013-03-11 19:22:00,54.3,52.0,29.74,West,271,3.0,7.0,92,0.00,,,0.81,Wunderground v.1.15,2013-03-11 23:22:00,
2013-03-11 19:23:00,54.3,52.3,29.75,West,277,5.0,7.0,93,0.00,,,0.81,Wunderground v.1.15,2013-03-11 23:23:00,
2013-03-11 19:26:00,54.2,52.2,29.75,West,281,2.0,7.0,93,0.00,,,0.81,Wunderground v.1.15,2013-03-11 23:26:00,
2013-03-11 19:27:00,54.1,52.1,29.75,West,276,6.0,7.0,93,0.00,,,0.81,Wunderground v.1.15,2013-03-11 23:27:00,
2013-03-11 19:28:00,54.1,52.1,29.75,WSW,253,3.0,7.0,93,0.00,,,0.82,Wunderground v.1.15,2013-03-11 23:28:00,
2013-03-11 19:31:00,54.1,52.1,29.75,WSW,257,3.0,4.0,93,0.00,,,0.82,Wunderground v.1.15,2013-03-11 23:31:00,
2013-03-11 19:32:00,54.0,52.0,29.75,WSW,258,1.0,4.0,93,0.20,,,0.83,Wunderground v.1.15,2013-03-11 23:32:00,
2013-03-11 19:33:00,54.0,52.3,29.75,WSW,258,1.0,4.0,94,0.20,,,0.83,Wunderground v.1.15,2013-03-11 23:33:00,
2013-03-11 19:36:00,53.9,52.2,29.75,WSW,253,4.0,5.0,94,0.49,,,0.84,Wunderground v.1.15,2013-03-11 23:36:00,
2013-03-11 19:38:00,53.9,52.2,29.75,WSW,253,3.0,5.0,94,0.39,,,0.85,Wunderground v.1.15,2013-03-11 23:38:00,
2013-03-11 19:39:00,53.9,52.2,29.75,WSW,251,6.0,6.0,94,0.23,,,0.85,Wunderground v.1.15,2013-03-11 23:39:00,
2013-03-11 19:41:00,53.8,52.1,29.75,WSW,244,1.0,6.0,94,0.15,,,0.86,Wunderground v.1.15,2013-03-11 23:41:00,
2013-03-11 19:42:00,53.8,52.1,29.75,SW,225,3.0,6.0,94,0.15,,,0.86,Wunderground v.1.15,2013-03-11 23:42:00,
2013-03-11 19:43:00,53.8,52.1,29.75,SW,225,0.0,6.0,94,0.15,,,0.86,Wunderground v.1.15,2013-03-11 23:43:00,
2013-03-11 19:44:00,53.8,52.1,29.75,SW,225,2.0,6.0,94,0.15,,,0.86,Wunderground v.1.15,2013-03-11 23:44:00,
2013-03-11 19:47:00,53.7,52.0,29.75,SW,227,4.0,7.0,94,0.15,,,0.87,Wunderground v.1.15,2013-03-11 23:47:00,
2013-03-11 19:48:00,53.7,52.0,29.75,SW,227,1.0,7.0,94,0.14,,,0.87,Wunderground v.1.15,2013-03-11 23:48:00,
2013-03-11 19:49:00,53.7,52.3,29.76,SW,227,2.0,7.0,95,0.12,,,0.87,Wunderground v.1.15,2013-03-11 23:49:00,
2013-03-11 19:52:00,53.7,52.3,29.76,SW,227,1.0,4.0,95,0.07,,,0.87,Wunderground v.1.15,2013-03-11 23:52:00,
2013-03-11 19:53:00,53.7,52.3,29.75,SW,227,2.0,4.0,95,0.06,,,0.87,Wunderground v.1.15,2013-03-11 23:53:00,
2013-03-11 19:54:00,53.6,52.2,29.75,SW,227,3.0,5.0,95,0.06,,,0.87,Wunderground v.1.15,2013-03-11 23:54:00,
2013-03-11 19:57:00,53.6,52.2,29.76,SW,227,2.0,5.0,95,0.06,,,0.88,Wunderground v.1.15,2013-03-11 23:57:00,
2013-03-11 19:59:00,53.6,52.2,29.76,SW,229,5.0,6.0,95,0.06,,,0.88,Wunderground v.1.15,2013-03-11 23:59:00,
2013-03-11 20:03:00,53.6,52.2,29.76,SW,223,2.0,5.0,95,0.06,,,0.88,Wunderground v.1.15,2013-03-12 00:03:00,
2013-03-11 20:04:00,53.6,52.2,29.76,SW,223,4.0,5.0,95,0.06,,,0.88,Wunderground v.1.15,2013-03-12 00:04:00,
2013-03-11 20:08:00,53.5,52.1,29.76,SW,223,5.0,5.0,95,0.04,,,0.88,Wunderground v.1.15,2013-03-12 00:08:00,
2013-03-11 20:09:00,53.5,52.1,29.76,SW,223,5.0,5.0,95,0.04,,,0.88,Wunderground v.1.15,2013-03-12 00:09:00,
2013-03-11 20:13:00,53.5,52.1,29.76,SW,223,5.0,6.0,95,0.00,,,0.88,Wunderground v.1.15,2013-03-12 00:13:00,
2013-03-11 20:14:00,53.5,52.1,29.77,SW,223,2.0,6.0,95,0.00,,,0.89,Wunderground v.1.15,2013-03-12 00:14:00,
2013-03-11 20:15:00,53.5,52.1,29.77,SW,223,1.0,6.0,95,0.00,,,0.89,Wunderground v.1.15,2013-03-12 00:15:00,
2013-03-11 20:18:00,53.5,52.1,29.77,SW,229,4.0,6.0,95,0.00,,,0.89,Wunderground v.1.15,2013-03-12 00:18:00,
2013-03-11 20:19:00,53.5,52.1,29.77,SW,227,2.0,6.0,95,0.00,,,0.89,Wunderground v.1.15,2013-03-12 00:19:00,
2013-03-11 20:20:00,53.5,52.1,29.77,SW,228,3.0,3.0,95,0.00,,,0.89,Wunderground v.1.15,2013-03-12 00:20:00,
2013-03-11 20:23:00,53.5,52.1,29.77,SW,226,3.0,7.0,95,0.00,,,0.89,Wunderground v.1.15,2013-03-12 00:23:00,
2013-03-11 20:24:00,53.5,52.4,29.77,SSW,211,3.0,12.0,96,0.06,,,0.90,Wunderground v.1.15,2013-03-12 00:24:00,
2013-03-11 20:25:00,53.5,52.4,29.77,SSW,211,2.0,12.0,96,0.06,,,0.90,Wunderground v.1.15,2013-03-12 00:25:00,
2013-03-11 20:27:00,53.5,52.4,29.76,SSW,211,3.0,12.0,96,0.06,,,0.90,Wunderground v.1.15,2013-03-12 00:27:00,
2013-03-11 20:29:00,53.5,52.4,29.76,SW,215,4.0,12.0,96,0.06,,,0.90,Wunderground v.1.15,2013-03-12 00:29:00,
2013-03-11 20:30:00,53.5,52.4,29.77,SW,215,2.0,4.0,96,0.06,,,0.90,Wunderground v.1.15,2013-03-12 00:30:00,
2013-03-11 20:32:00,53.5,52.4,29.76,SW,221,7.0,9.0,96,0.06,,,0.90,Wunderground v.1.15,2013-03-12 00:32:00,
2013-03-11 20:34:00,53.5,52.4,29.77,SW,225,3.0,9.0,96,0.06,,,0.90,Wunderground v.1.15,2013-03-12 00:34:00,
2013-03-11 20:35:00,53.5,52.4,29.77,SW,225,3.0,9.0,96,0.05,,,0.90,Wunderground v.1.15,2013-03-12 00:35:00,
2013-03-11 20:38:00,53.5,52.4,29.77,SW,225,3.0,9.0,96,0.05,,,0.91,Wunderground v.1.15,2013-03-12 00:38:00,
2013-03-11 20:39:00,53.4,52.3,29.77,SW,225,1.0,9.0,96,0.05,,,0.91,Wunderground v.1.15,2013-03-12 00:39:00,
2013-03-11 20:40:00,53.5,52.4,29.77,SW,225,0.0,3.0,96,0.05,,,0.91,Wunderground v.1.15,2013-03-12 00:40:00,
2013-03-11 20:43:00,53.4,52.3,29.78,SW,225,1.0,3.0,96,0.05,,,0.91,Wunderground v.1.15,2013-03-12 00:43:00,
2013-03-11 20:45:00,53.4,52.3,29.78,SW,225,1.0,3.0,96,0.08,,,0.92,Wunderground v.1.15,2013-03-12 00:45:00,
2013-03-11 20:48:00,53.3,52.2,29.78,NW,314,3.0,13.0,96,0.26,,,0.93,Wunderground v.1.15,2013-03-12 00:48:00,
2013-03-11 20:50:00,53.1,51.7,29.78,WNW,283,5.0,10.0,95,0.26,,,0.94,Wunderground v.1.15,2013-03-12 00:50:00,
2013-03-11 20:53:00,52.3,50.6,29.78,WNW,292,2.0,10.0,94,0.12,,,0.94,Wunderground v.1.15,2013-03-12 00:53:00,
2013-03-11 20:55:00,52.0,50.3,29.78,NW,304,4.0,10.0,94,0.09,,,0.94,Wunderground v.1.15,2013-03-12 00:55:00,
2013-03-11 20:59:00,51.4,49.7,29.78,NW,304,3.0,10.0,94,0.06,,,0.94,Wunderground v.1.15,2013-03-12 00:59:00,
2013-03-11 21:00:00,51.2,49.5,29.78,WNW,290,3.0,6.0,94,0.05,,,0.94,Wunderground v.1.15,2013-03-12 01:00:00,
2013-03-11 21:01:00,51.2,49.5,29.78,WNW,290,4.0,6.0,94,0.05,,,0.94,Wunderground v.1.15,2013-03-12 01:01:00,
2013-03-11 21:04:00,50.9,49.2,29.78,WNW,290,2.0,6.0,94,0.04,,,0.94,Wunderground v.1.15,2013-03-12 01:04:00,
2013-03-11 21:06:00,50.8,49.1,29.78,WNW,290,2.0,6.0,94,0.00,,,0.94,Wunderground v.1.15,2013-03-12 01:06:00,
2013-03-11 21:07:00,50.6,48.9,29.78,WNW,289,1.0,6.0,94,0.00,,,0.94,Wunderground v.1.15,2013-03-12 01:07:00,
2013-03-11 21:09:00,50.5,48.8,29.78,WNW,286,4.0,6.0,94,0.00,,,0.94,Wunderground v.1.15,2013-03-12 01:09:00,
2013-03-11 21:11:00,50.4,48.7,29.79,WNW,286,2.0,4.0,94,0.00,,,0.95,Wunderground v.1.15,2013-03-12 01:11:00,
2013-03-11 21:12:00,50.4,48.7,29.80,WNW,286,1.0,4.0,94,0.00,,,0.95,Wunderground v.1.15,2013-03-12 01:12:00,
2013-03-11 21:14:00,50.3,48.9,29.80,WNW,286,2.0,4.0,95,0.00,,,0.95,Wunderground v.1.15,2013-03-12 01:14:00,
2013-03-11 21:16:00,50.3,48.9,29.79,WNW,286,1.0,4.0,95,0.09,,,0.96,Wunderground v.1.15,2013-03-12 01:16:00,
2013-03-11 21:17:00,50.3,48.9,29.79,WNW,286,1.0,4.0,95,0.09,,,0.96,Wunderground v.1.15,2013-03-12 01:17:00,
2013-03-11 21:19:00,50.3,48.9,29.79,WNW,286,1.0,4.0,95,0.25,,,0.97,Wunderground v.1.15,2013-03-12 01:19:00,
2013-03-11 21:22:00,50.1,48.7,29.80,WNW,286,3.0,3.0,95,0.16,,,0.97,Wunderground v.1.15,2013-03-12 01:22:00,
2013-03-11 21:23:00,50.1,48.7,29.80,WNW,286,2.0,3.0,95,0.13,,,0.97,Wunderground v.1.15,2013-03-12 01:23:00,
2013-03-11 21:24:00,50.1,48.7,29.79,WNW,286,2.0,3.0,95,0.10,,,0.97,Wunderground v.1.15,2013-03-12 01:24:00,
2013-03-11 21:27:00,50.0,48.6,29.79,WNW,286,0.0,3.0,95,0.07,,,0.97,Wunderground v.1.15,2013-03-12 01:27:00,
2013-03-11 21:28:00,50.0,48.6,29.79,WNW,286,1.0,3.0,95,0.06,,,0.97,Wunderground v.1.15,2013-03-12 01:28:00,
2013-03-11 21:29:00,50.0,48.6,29.79,WNW,286,1.0,3.0,95,0.06,,,0.97,Wunderground v.1.15,2013-03-12 01:29:00,
2013-03-11 21:33:00,49.9,48.5,29.80,WNW,286,0.0,1.0,95,0.04,,,0.97,Wunderground v.1.15,2013-03-12 01:33:00,
2013-03-11 21:34:00,49.9,48.5,29.80,WNW,286,3.0,3.0,95,0.04,,,0.97,Wunderground v.1.15,2013-03-12 01:34:00,
2013-03-11 21:38:00,49.9,48.5,29.80,WNW,286,1.0,4.0,95,0.00,,,0.97,Wunderground v.1.15,2013-03-12 01:38:00,
2013-03-11 21:39:00,49.9,48.5,29.80,WNW,286,1.0,4.0,95,0.00,,,0.98,Wunderground v.1.15,2013-03-12 01:39:00,
2013-03-11 21:43:00,49.8,48.4,29.80,WNW,286,0.0,4.0,95,0.00,,,0.98,Wunderground v.1.15,2013-03-12 01:43:00,
2013-03-11 21:44:00,49.8,48.4,29.80,WNW,286,3.0,4.0,95,0.00,,,0.98,Wunderground v.1.15,2013-03-12 01:44:00,
2013-03-11 21:48:00,49.7,48.3,29.80,WNW,286,3.0,4.0,95,0.07,,,0.99,Wunderground v.1.15,2013-03-12 01:48:00,
2013-03-11 21:49:00,49.6,48.2,29.80,WNW,291,3.0,7.0,95,0.07,,,0.99,Wunderground v.1.15,2013-03-12 01:49:00,
2013-03-11 21:50:00,49.6,48.2,29.80,WNW,291,2.0,3.0,95,0.07,,,0.99,Wunderground v.1.15,2013-03-12 01:50:00,
2013-03-11 21:53:00,49.4,48.0,29.80,WNW,291,0.0,4.0,95,0.07,,,0.99,Wunderground v.1.15,2013-03-12 01:53:00,
2013-03-11 21:54:00,49.4,48.0,29.80,WNW,291,1.0,4.0,95,0.07,,,0.99,Wunderground v.1.15,2013-03-12 01:54:00,
2013-03-11 21:55:00,49.4,48.0,29.80,WNW,291,3.0,4.0,95,0.07,,,0.99,Wunderground v.1.15,2013-03-12 01:55:00,
2013-03-11 21:58:00,49.4,48.0,29.80,WNW,291,1.0,4.0,95,0.05,,,0.99,Wunderground v.1.15,2013-03-12 01:58:00,
2013-03-11 21:59:00,49.3,47.9,29.80,WNW,291,2.0,4.0,95,0.05,,,0.99,Wunderground v.1.15,2013-03-12 01:59:00,
2013-03-11 22:00:00,49.3,47.9,29.80,WNW,291,0.0,1.0,95,0.05,,,0.99,Wunderground v.1.15,2013-03-12 02:00:00,
2013-03-11 22:03:00,49.2,47.8,29.80,WNW,294,2.0,5.0,95,0.04,,,0.99,Wunderground v.1.15,2013-03-12 02:03:00,
2013-03-11 22:04:00,49.2,47.8,29.80,WNW,294,1.0,5.0,95,0.04,,,0.99,Wunderground v.1.15,2013-03-12 02:04:00,
2013-03-11 22:05:00,49.2,47.8,29.80,WNW,294,3.0,5.0,95,0.00,,,0.99,Wunderground v.1.15,2013-03-12 02:05:00,
2013-03-11 22:07:00,49.1,47.7,29.80,WNW,294,1.0,5.0,95,0.00,,,0.99,Wunderground v.1.15,2013-03-12 02:07:00,
2013-03-11 22:09:00,49.1,47.7,29.81,WNW,294,3.0,5.0,95,0.00,,,0.99,Wunderground v.1.15,2013-03-12 02:09:00,
2013-03-11 22:11:00,49.0,47.6,29.81,WNW,294,0.0,2.0,95,0.00,,,0.99,Wunderground v.1.15,2013-03-12 02:11:00,
2013-03-11 22:12:00,49.0,47.6,29.81,WNW,294,2.0,2.0,95,0.00,,,0.99,Wunderground v.1.15,2013-03-12 02:12:00,
2013-03-11 22:14:00,49.1,47.7,29.81,WNW,293,1.0,5.0,95,0.00,,,0.99,Wunderground v.1.15,2013-03-12 02:14:00,
2013-03-11 22:16:00,49.1,47.7,29.81,WNW,293,1.0,5.0,95,0.00,,,0.99,Wunderground v.1.15,2013-03-12 02:16:00,
2013-03-11 22:17:00,49.1,47.7,29.81,WNW,293,0.0,5.0,95,0.00,,,0.99,Wunderground v.1.15,2013-03-12 02:17:00,
2013-03-11 22:19:00,49.1,47.7,29.80,WNW,292,1.0,5.0,95,0.00,,,0.99,Wunderground v.1.15,2013-03-12 02:19:00,
2013-03-11 22:20:00,49.0,47.6,29.81,WNW,292,2.0,2.0,95,0.00,,,0.99,Wunderground v.1.15,2013-03-12 02:20:00,
2013-03-11 22:21:00,49.0,47.6,29.80,WNW,293,0.0,2.0,95,0.00,,,0.99,Wunderground v.1.15,2013-03-12 02:21:00,
2013-03-11 22:22:00,49.0,47.6,29.81,WNW,293,2.0,3.0,95,0.00,,,0.99,Wunderground v.1.15,2013-03-12 02:22:00,
2013-03-11 22:24:00,49.0,47.6,29.81,WNW,292,2.0,3.0,95,0.00,,,0.99,Wunderground v.1.15,2013-03-12 02:24:00,
2013-03-11 22:25:00,49.0,47.6,29.82,WNW,293,0.0,3.0,95,0.00,,,0.99,Wunderground v.1.15,2013-03-12 02:25:00,
2013-03-11 22:27:00,48.9,47.5,29.82,WNW,291,2.0,4.0,95,0.00,,,1.00,Wunderground v.1.15,2013-03-12 02:27:00,
2013-03-11 22:29:00,48.9,47.5,29.82,WNW,291,1.0,4.0,95,0.00,,,1.00,Wunderground v.1.15,2013-03-12 02:29:00,
2013-03-11 22:30:00,48.9,47.5,29.82,WNW,291,3.0,5.0,95,0.00,,,1.00,Wunderground v.1.15,2013-03-12 02:30:00,
2013-03-11 22:32:00,48.8,47.4,29.81,WNW,287,3.0,6.0,95,0.00,,,1.00,Wunderground v.1.15,2013-03-12 02:32:00,
2013-03-11 22:33:00,48.7,47.3,29.81,WNW,288,2.0,6.0,95,0.00,,,1.00,Wunderground v.1.15,2013-03-12 02:33:00,
2013-03-11 22:34:00,48.6,47.2,29.82,WNW,288,2.0,6.0,95,0.00,,,1.00,Wunderground v.1.15,2013-03-12 02:34:00,
2013-03-11 22:35:00,48.5,47.1,29.82,WNW,288,2.0,6.0,95,0.07,,,1.01,Wunderground v.1.15,2013-03-12 02:35:00,
2013-03-11 22:38:00,48.3,46.9,29.82,WNW,292,4.0,6.0,95,0.07,,,1.01,Wunderground v.1.15,2013-03-12 02:38:00,
2013-03-11 22:40:00,48.1,46.7,29.82,WNW,292,0.0,2.0,95,0.17,,,1.02,Wunderground v.1.15,2013-03-12 02:40:00,
2013-03-11 22:43:00,47.9,46.5,29.82,WNW,291,0.0,4.0,95,0.12,,,1.02,Wunderground v.1.15,2013-03-12 02:43:00,
2013-03-11 22:45:00,47.8,46.4,29.82,WNW,292,3.0,4.0,95,0.08,,,1.02,Wunderground v.1.15,2013-03-12 02:45:00,
2013-03-11 22:48:00,47.6,46.2,29.82,WNW,292,2.0,4.0,95,0.06,,,1.02,Wunderground v.1.15,2013-03-12 02:48:00,
2013-03-11 22:49:00,47.6,46.2,29.82,WNW,291,2.0,4.0,95,0.06,,,1.02,Wunderground v.1.15,2013-03-12 02:49:00,
2013-03-11 22:50:00,47.6,46.2,29.83,WNW,292,2.0,2.0,95,0.05,,,1.02,Wunderground v.1.15,2013-03-12 02:50:00,
2013-03-11 22:51:00,47.6,46.2,29.83,WNW,292,2.0,2.0,95,0.05,,,1.02,Wunderground v.1.15,2013-03-12 02:51:00,
2013-03-11 22:53:00,47.5,46.1,29.83,WNW,284,4.0,6.0,95,0.04,,,1.02,Wunderground v.1.15,2013-03-12 02:53:00,
2013-03-11 22:54:00,47.5,46.1,29.83,WNW,284,3.0,6.0,95,0.04,,,1.02,Wunderground v.1.15,2013-03-12 02:54:00,
2013-03-11 22:56:00,47.4,46.0,29.83,WNW,284,0.0,6.0,95,0.00,,,1.02,Wunderground v.1.15,2013-03-12 02:56:00,
2013-03-11 22:57:00,47.4,46.0,29.83,WNW,284,3.0,6.0,95,0.00,,,1.02,Wunderground v.1.15,2013-03-12 02:57:00,
2013-03-11 22:59:00,47.4,46.0,29.83,WNW,284,2.0,6.0,95,0.00,,,1.02,Wunderground v.1.15,2013-03-12 02:59:00,
2013-03-11 23:00:00,47.4,46.0,29.83,WNW,284,1.0,3.0,95,0.00,,,1.02,Wunderground v.1.15,2013-03-12 03:00:00,
2013-03-11 23:01:00,47.4,46.0,29.83,WNW,284,2.0,4.0,95,0.00,,,1.02,Wunderground v.1.15,2013-03-12 03:01:00,
2013-03-11 23:02:00,47.4,46.0,29.83,WNW,284,1.0,4.0,95,0.00,,,1.02,Wunderground v.1.15,2013-03-12 03:02:00,
2013-03-11 23:04:00,47.4,46.0,29.83,WNW,284,0.0,4.0,95,0.00,,,1.02,Wunderground v.1.15,2013-03-12 03:04:00,
2013-03-11 23:05:00,47.4,46.0,29.83,WNW,284,0.0,4.0,95,0.00,,,1.02,Wunderground v.1.15,2013-03-12 03:05:00,
2013-03-11 23:07:00,47.4,46.0,29.83,WNW,284,0.0,4.0,95,0.00,,,1.02,Wunderground v.1.15,2013-03-12 03:07:00,
2013-03-11 23:08:00,47.4,46.0,29.83,WNW,284,0.0,4.0,95,0.00,,,1.02,Wunderground v.1.15,2013-03-12 03:08:00,
2013-03-11 23:09:00,47.3,45.9,29.84,WNW,284,0.0,4.0,95,0.00,,,1.02,Wunderground v.1.15,2013-03-12 03:09:00,
2013-03-11 23:11:00,47.4,46.0,29.84,WNW,284,2.0,2.0,95,0.00,,,1.02,Wunderground v.1.15,2013-03-12 03:11:00,
2013-03-11 23:12:00,47.4,46.0,29.84,WNW,284,2.0,2.0,95,0.00,,,1.02,Wunderground v.1.15,2013-03-12 03:12:00,
2013-03-11 23:14:00,47.3,45.9,29.84,WNW,284,0.0,2.0,95,0.00,,,1.02,Wunderground v.1.15,2013-03-12 03:14:00,
2013-03-11 23:16:00,47.1,45.7,29.85,WNW,284,3.0,5.0,95,0.00,,,1.02,Wunderground v.1.15,2013-03-12 03:16:00,
2013-03-11 23:17:00,47.0,45.6,29.85,WNW,284,3.0,5.0,95,0.00,,,1.02,Wunderground v.1.15,2013-03-12 03:17:00,
2013-03-11 23:19:00,46.9,45.3,29.84,WNW,284,4.0,5.0,94,0.00,,,1.03,Wunderground v.1.15,2013-03-12 03:19:00,
2013-03-11 23:22:00,46.7,45.1,29.84,WNW,284,1.0,2.0,94,0.00,,,1.03,Wunderground v.1.15,2013-03-12 03:22:00,
2013-03-11 23:23:00,46.7,45.1,29.84,WNW,284,1.0,2.0,94,0.00,,,1.03,Wunderground v.1.15,2013-03-12 03:23:00,
2013-03-11 23:24:00,46.6,45.0,29.85,WNW,284,0.0,2.0,94,0.00,,,1.03,Wunderground v.1.15,2013-03-12 03:24:00,
2013-03-11 23:25:00,46.6,45.2,29.85,WNW,284,0.0,2.0,95,0.00,,,1.03,Wunderground v.1.15,2013-03-12 03:25:00,
2013-03-11 23:27:00,46.5,45.1,29.85,WNW,284,0.0,2.0,95,0.00,,,1.03,Wunderground v.1.15,2013-03-12 03:27:00,
2013-03-11 23:28:00,46.5,44.9,29.85,WNW,284,0.0,2.0,94,0.00,,,1.03,Wunderground v.1.15,2013-03-12 03:28:00,
2013-03-11 23:29:00,46.4,45.0,29.85,WNW,284,0.0,2.0,95,0.06,,,1.04,Wunderground v.1.15,2013-03-12 03:29:00,
2013-03-11 23:32:00,46.3,44.9,29.85,WNW,284,0.0,1.0,95,0.06,,,1.04,Wunderground v.1.15,2013-03-12 03:32:00,
2013-03-11 23:33:00,46.2,44.8,29.84,WNW,284,1.0,2.0,95,0.06,,,1.04,Wunderground v.1.15,2013-03-12 03:33:00,
2013-03-11 23:34:00,46.2,44.8,29.85,WNW,284,2.0,2.0,95,0.06,,,1.04,Wunderground v.1.15,2013-03-12 03:34:00,
2013-03-11 23:37:00,46.1,44.7,29.85,WNW,284,1.0,2.0,95,0.06,,,1.04,Wunderground v.1.15,2013-03-12 03:37:00,
2013-03-11 23:38:00,46.0,44.4,29.86,WNW,284,0.0,2.0,94,0.06,,,1.04,Wunderground v.1.15,2013-03-12 03:38:00,
2013-03-11 23:40:00,46.0,44.4,29.85,WNW,284,1.0,2.0,94,0.05,,,1.04,Wunderground v.1.15,2013-03-12 03:40:00,
2013-03-11 23:42:00,45.8,44.2,29.86,WNW,284,0.0,4.0,94,0.04,,,1.04,Wunderground v.1.15,2013-03-12 03:42:00,
2013-03-11 23:43:00,45.7,44.1,29.85,WNW,284,0.0,4.0,94,0.04,,,1.04,Wunderground v.1.15,2013-03-12 03:43:00,
2013-03-11 23:44:00,45.7,44.1,29.85,WNW,284,0.0,4.0,94,0.04,,,1.04,Wunderground v.1.15,2013-03-12 03:44:00,
2013-03-11 23:45:00,45.6,44.0,29.85,WNW,284,0.0,4.0,94,0.04,,,1.04,Wunderground v.1.15,2013-03-12 03:45:00,
2013-03-11 23:47:00,45.5,43.9,29.85,WNW,284,1.0,4.0,94,0.00,,,1.04,Wunderground v.1.15,2013-03-12 03:47:00,
2013-03-11 23:49:00,45.5,43.9,29.85,WNW,284,0.0,4.0,94,0.00,,,1.04,Wunderground v.1.15,2013-03-12 03:49:00,
2013-03-11 23:50:00,45.5,43.9,29.85,WNW,284,0.0,1.0,94,0.00,,,1.04,Wunderground v.1.15,2013-03-12 03:50:00,
2013-03-11 23:53:00,45.4,43.8,29.85,WNW,284,0.0,1.0,94,0.00,,,1.04,Wunderground v.1.15,2013-03-12 03:53:00,
2013-03-11 23:54:00,45.4,43.8,29.85,WNW,284,1.0,1.0,94,0.00,,,1.04,Wunderground v.1.15,2013-03-12 03:54:00,
2013-03-11 23:55:00,45.3,43.7,29.85,WNW,284,0.0,2.0,94,0.00,,,1.04,Wunderground v.1.15,2013-03-12 03:55:00,
2013-03-11 23:59:00,45.2,43.6,29.86,WNW,284,0.0,2.0,94,0.00,,,1.04,Wunderground v.1.15,2013-03-12 03:59:00,